<?xml version="1.0" encoding="UTF-8" standalone="no" ?>
<gpx xmlns="http://www.topografix.com/GPX/1/1" xmlns:xsi="http://www.w3.org/2001/XMLSchema-instance" xsi:schemaLocation="http://www.topografix.com/GPX/1/1 http://www.topografix.com/GPX/1/1/gpx.xsd" version="1.1" creator="VisuGPX - https://www.visugpx.com">
  <metadata>
    <name>83-M-Lorgues</name>
    <desc><![CDATA[83-M-Lorgues : les Pailles - la Bélière
2019-11-13]]></desc>
  </metadata>
  <trk>
    <name><![CDATA[2019-11-13-M-Lorgues]]></name>
    <trkseg>
      <trkpt lat="43.48343" lon="6.39723">
        <ele>136.4</ele>
        <time>2019-11-13T12:52:53Z</time>
      </trkpt>
      <trkpt lat="43.48343" lon="6.39722">
        <ele>136.3</ele>
        <time>2019-11-13T12:52:54Z</time>
      </trkpt>
      <trkpt lat="43.48352" lon="6.39715">
        <ele>136.4</ele>
        <time>2019-11-13T12:53:04Z</time>
      </trkpt>
      <trkpt lat="43.4836" lon="6.39708">
        <ele>136.4</ele>
        <time>2019-11-13T12:53:12Z</time>
      </trkpt>
      <trkpt lat="43.48367" lon="6.397">
        <ele>136.7</ele>
        <time>2019-11-13T12:53:26Z</time>
      </trkpt>
      <trkpt lat="43.48374" lon="6.39691">
        <ele>137.2</ele>
        <time>2019-11-13T12:53:41Z</time>
      </trkpt>
      <trkpt lat="43.48379" lon="6.3968">
        <ele>137</ele>
        <time>2019-11-13T12:53:51Z</time>
      </trkpt>
      <trkpt lat="43.48384" lon="6.39669">
        <ele>137.5</ele>
        <time>2019-11-13T12:53:59Z</time>
      </trkpt>
      <trkpt lat="43.4839" lon="6.39659">
        <ele>137.6</ele>
        <time>2019-11-13T12:54:06Z</time>
      </trkpt>
      <trkpt lat="43.48395" lon="6.39648">
        <ele>137.8</ele>
        <time>2019-11-13T12:54:14Z</time>
      </trkpt>
      <trkpt lat="43.48399" lon="6.39636">
        <ele>138.4</ele>
        <time>2019-11-13T12:54:26Z</time>
      </trkpt>
      <trkpt lat="43.48404" lon="6.39625">
        <ele>138.8</ele>
        <time>2019-11-13T12:54:34Z</time>
      </trkpt>
      <trkpt lat="43.48408" lon="6.39613">
        <ele>139.3</ele>
        <time>2019-11-13T12:54:45Z</time>
      </trkpt>
      <trkpt lat="43.48413" lon="6.39602">
        <ele>139.4</ele>
        <time>2019-11-13T12:54:57Z</time>
      </trkpt>
      <trkpt lat="43.48415" lon="6.39588">
        <ele>139.7</ele>
        <time>2019-11-13T12:55:09Z</time>
      </trkpt>
      <trkpt lat="43.48416" lon="6.39575">
        <ele>140.2</ele>
        <time>2019-11-13T12:55:23Z</time>
      </trkpt>
      <trkpt lat="43.48413" lon="6.39563">
        <ele>140.3</ele>
        <time>2019-11-13T12:55:31Z</time>
      </trkpt>
      <trkpt lat="43.4841" lon="6.39551">
        <ele>140.3</ele>
        <time>2019-11-13T12:55:42Z</time>
      </trkpt>
      <trkpt lat="43.48405" lon="6.39541">
        <ele>139.6</ele>
        <time>2019-11-13T12:55:52Z</time>
      </trkpt>
      <trkpt lat="43.48402" lon="6.39528">
        <ele>139.6</ele>
        <time>2019-11-13T12:56:00Z</time>
      </trkpt>
      <trkpt lat="43.48399" lon="6.39516">
        <ele>139.8</ele>
        <time>2019-11-13T12:56:07Z</time>
      </trkpt>
      <trkpt lat="43.48397" lon="6.39503">
        <ele>140.1</ele>
        <time>2019-11-13T12:56:15Z</time>
      </trkpt>
      <trkpt lat="43.48398" lon="6.39489">
        <ele>140.2</ele>
        <time>2019-11-13T12:56:21Z</time>
      </trkpt>
      <trkpt lat="43.48398" lon="6.39474">
        <ele>140.3</ele>
        <time>2019-11-13T12:56:29Z</time>
      </trkpt>
      <trkpt lat="43.484" lon="6.39462">
        <ele>140.3</ele>
        <time>2019-11-13T12:56:35Z</time>
      </trkpt>
      <trkpt lat="43.48402" lon="6.3945">
        <ele>140.4</ele>
        <time>2019-11-13T12:56:42Z</time>
      </trkpt>
      <trkpt lat="43.48403" lon="6.39437">
        <ele>140.4</ele>
        <time>2019-11-13T12:56:49Z</time>
      </trkpt>
      <trkpt lat="43.48405" lon="6.39424">
        <ele>140.3</ele>
        <time>2019-11-13T12:56:58Z</time>
      </trkpt>
      <trkpt lat="43.48407" lon="6.39411">
        <ele>140.1</ele>
        <time>2019-11-13T12:57:07Z</time>
      </trkpt>
      <trkpt lat="43.48409" lon="6.39397">
        <ele>140.4</ele>
        <time>2019-11-13T12:57:16Z</time>
      </trkpt>
      <trkpt lat="43.48412" lon="6.39385">
        <ele>140.8</ele>
        <time>2019-11-13T12:57:23Z</time>
      </trkpt>
      <trkpt lat="43.48415" lon="6.39373">
        <ele>140.9</ele>
        <time>2019-11-13T12:57:31Z</time>
      </trkpt>
      <trkpt lat="43.48416" lon="6.39359">
        <ele>140.9</ele>
        <time>2019-11-13T12:57:41Z</time>
      </trkpt>
      <trkpt lat="43.4842" lon="6.39347">
        <ele>141</ele>
        <time>2019-11-13T12:57:49Z</time>
      </trkpt>
      <trkpt lat="43.48423" lon="6.39334">
        <ele>141.2</ele>
        <time>2019-11-13T12:57:56Z</time>
      </trkpt>
      <trkpt lat="43.48427" lon="6.39323">
        <ele>141.2</ele>
        <time>2019-11-13T12:58:03Z</time>
      </trkpt>
      <trkpt lat="43.4843" lon="6.3931">
        <ele>141.5</ele>
        <time>2019-11-13T12:58:12Z</time>
      </trkpt>
      <trkpt lat="43.48434" lon="6.39298">
        <ele>142</ele>
        <time>2019-11-13T12:58:20Z</time>
      </trkpt>
      <trkpt lat="43.48437" lon="6.39286">
        <ele>142.1</ele>
        <time>2019-11-13T12:58:28Z</time>
      </trkpt>
      <trkpt lat="43.48438" lon="6.39274">
        <ele>142</ele>
        <time>2019-11-13T12:58:36Z</time>
      </trkpt>
      <trkpt lat="43.48437" lon="6.39261">
        <ele>142.2</ele>
        <time>2019-11-13T12:58:44Z</time>
      </trkpt>
      <trkpt lat="43.48434" lon="6.39249">
        <ele>142.4</ele>
        <time>2019-11-13T12:58:52Z</time>
      </trkpt>
      <trkpt lat="43.48432" lon="6.39237">
        <ele>142.7</ele>
        <time>2019-11-13T12:59:01Z</time>
      </trkpt>
      <trkpt lat="43.48427" lon="6.39226">
        <ele>143.2</ele>
        <time>2019-11-13T12:59:11Z</time>
      </trkpt>
      <trkpt lat="43.48429" lon="6.39213">
        <ele>143.9</ele>
        <time>2019-11-13T12:59:26Z</time>
      </trkpt>
      <trkpt lat="43.48429" lon="6.39199">
        <ele>144</ele>
        <time>2019-11-13T12:59:36Z</time>
      </trkpt>
      <trkpt lat="43.48425" lon="6.39186">
        <ele>144.4</ele>
        <time>2019-11-13T12:59:46Z</time>
      </trkpt>
      <trkpt lat="43.48423" lon="6.39172">
        <ele>144.6</ele>
        <time>2019-11-13T12:59:55Z</time>
      </trkpt>
      <trkpt lat="43.4842" lon="6.3916">
        <ele>145</ele>
        <time>2019-11-13T13:00:05Z</time>
      </trkpt>
      <trkpt lat="43.48419" lon="6.39147">
        <ele>145.1</ele>
        <time>2019-11-13T13:00:14Z</time>
      </trkpt>
      <trkpt lat="43.48417" lon="6.39134">
        <ele>145.4</ele>
        <time>2019-11-13T13:00:22Z</time>
      </trkpt>
      <trkpt lat="43.48415" lon="6.39121">
        <ele>145.6</ele>
        <time>2019-11-13T13:00:30Z</time>
      </trkpt>
      <trkpt lat="43.48417" lon="6.39109">
        <ele>146.1</ele>
        <time>2019-11-13T13:00:46Z</time>
      </trkpt>
      <trkpt lat="43.48415" lon="6.39095">
        <ele>146.5</ele>
        <time>2019-11-13T13:00:55Z</time>
      </trkpt>
      <trkpt lat="43.48412" lon="6.39082">
        <ele>146.5</ele>
        <time>2019-11-13T13:01:03Z</time>
      </trkpt>
      <trkpt lat="43.4841" lon="6.3907">
        <ele>146.5</ele>
        <time>2019-11-13T13:01:11Z</time>
      </trkpt>
      <trkpt lat="43.48406" lon="6.39057">
        <ele>146.6</ele>
        <time>2019-11-13T13:01:19Z</time>
      </trkpt>
      <trkpt lat="43.48403" lon="6.39045">
        <ele>146.8</ele>
        <time>2019-11-13T13:01:28Z</time>
      </trkpt>
      <trkpt lat="43.48401" lon="6.39032">
        <ele>147.1</ele>
        <time>2019-11-13T13:01:36Z</time>
      </trkpt>
      <trkpt lat="43.48399" lon="6.39019">
        <ele>147.6</ele>
        <time>2019-11-13T13:01:45Z</time>
      </trkpt>
      <trkpt lat="43.48397" lon="6.39006">
        <ele>147.8</ele>
        <time>2019-11-13T13:01:53Z</time>
      </trkpt>
      <trkpt lat="43.48396" lon="6.38993">
        <ele>148.2</ele>
        <time>2019-11-13T13:02:02Z</time>
      </trkpt>
      <trkpt lat="43.48396" lon="6.3898">
        <ele>148.5</ele>
        <time>2019-11-13T13:02:09Z</time>
      </trkpt>
      <trkpt lat="43.48394" lon="6.38967">
        <ele>148.6</ele>
        <time>2019-11-13T13:02:18Z</time>
      </trkpt>
      <trkpt lat="43.48392" lon="6.38953">
        <ele>148.3</ele>
        <time>2019-11-13T13:02:27Z</time>
      </trkpt>
      <trkpt lat="43.48383" lon="6.3895">
        <ele>148.4</ele>
        <time>2019-11-13T13:02:41Z</time>
      </trkpt>
      <trkpt lat="43.48375" lon="6.38944">
        <ele>148.4</ele>
        <time>2019-11-13T13:02:49Z</time>
      </trkpt>
      <trkpt lat="43.48368" lon="6.38934">
        <ele>148.5</ele>
        <time>2019-11-13T13:02:57Z</time>
      </trkpt>
      <trkpt lat="43.48361" lon="6.38925">
        <ele>148.8</ele>
        <time>2019-11-13T13:03:06Z</time>
      </trkpt>
      <trkpt lat="43.48352" lon="6.38921">
        <ele>149.2</ele>
        <time>2019-11-13T13:03:15Z</time>
      </trkpt>
      <trkpt lat="43.48343" lon="6.38924">
        <ele>150</ele>
        <time>2019-11-13T13:03:27Z</time>
      </trkpt>
      <trkpt lat="43.48334" lon="6.38923">
        <ele>151.1</ele>
        <time>2019-11-13T13:03:38Z</time>
      </trkpt>
      <trkpt lat="43.48325" lon="6.38921">
        <ele>151.7</ele>
        <time>2019-11-13T13:03:48Z</time>
      </trkpt>
      <trkpt lat="43.48317" lon="6.38914">
        <ele>153.2</ele>
        <time>2019-11-13T13:04:01Z</time>
      </trkpt>
      <trkpt lat="43.48309" lon="6.38907">
        <ele>154.2</ele>
        <time>2019-11-13T13:04:19Z</time>
      </trkpt>
      <trkpt lat="43.48301" lon="6.38912">
        <ele>156</ele>
        <time>2019-11-13T13:04:38Z</time>
      </trkpt>
      <trkpt lat="43.48296" lon="6.38922">
        <ele>159.6</ele>
        <time>2019-11-13T13:05:03Z</time>
      </trkpt>
      <trkpt lat="43.48289" lon="6.3893">
        <ele>161</ele>
        <time>2019-11-13T13:05:14Z</time>
      </trkpt>
      <trkpt lat="43.48286" lon="6.38943">
        <ele>162</ele>
        <time>2019-11-13T13:05:29Z</time>
      </trkpt>
      <trkpt lat="43.4828" lon="6.38953">
        <ele>163.9</ele>
        <time>2019-11-13T13:05:48Z</time>
      </trkpt>
      <trkpt lat="43.4827" lon="6.38954">
        <ele>164.6</ele>
        <time>2019-11-13T13:05:58Z</time>
      </trkpt>
      <trkpt lat="43.48261" lon="6.38954">
        <ele>165.5</ele>
        <time>2019-11-13T13:06:09Z</time>
      </trkpt>
      <trkpt lat="43.48252" lon="6.3895">
        <ele>167.6</ele>
        <time>2019-11-13T13:06:28Z</time>
      </trkpt>
      <trkpt lat="43.48243" lon="6.38947">
        <ele>170.1</ele>
        <time>2019-11-13T13:06:45Z</time>
      </trkpt>
      <trkpt lat="43.48234" lon="6.3895">
        <ele>171.3</ele>
        <time>2019-11-13T13:06:55Z</time>
      </trkpt>
      <trkpt lat="43.48225" lon="6.38957">
        <ele>172.6</ele>
        <time>2019-11-13T13:07:08Z</time>
      </trkpt>
      <trkpt lat="43.48216" lon="6.38962">
        <ele>173.7</ele>
        <time>2019-11-13T13:07:20Z</time>
      </trkpt>
      <trkpt lat="43.48206" lon="6.38966">
        <ele>174.5</ele>
        <time>2019-11-13T13:07:29Z</time>
      </trkpt>
      <trkpt lat="43.48198" lon="6.3897">
        <ele>175.1</ele>
        <time>2019-11-13T13:07:36Z</time>
      </trkpt>
      <trkpt lat="43.48189" lon="6.38974">
        <ele>175.4</ele>
        <time>2019-11-13T13:07:45Z</time>
      </trkpt>
      <trkpt lat="43.4818" lon="6.38981">
        <ele>175.5</ele>
        <time>2019-11-13T13:07:56Z</time>
      </trkpt>
      <trkpt lat="43.48171" lon="6.38988">
        <ele>175.7</ele>
        <time>2019-11-13T13:08:05Z</time>
      </trkpt>
      <trkpt lat="43.48163" lon="6.38991">
        <ele>177.3</ele>
        <time>2019-11-13T13:08:32Z</time>
      </trkpt>
      <trkpt lat="43.48156" lon="6.39">
        <ele>177.5</ele>
        <time>2019-11-13T13:08:57Z</time>
      </trkpt>
      <trkpt lat="43.48147" lon="6.39">
        <ele>177.5</ele>
        <time>2019-11-13T13:09:07Z</time>
      </trkpt>
      <trkpt lat="43.48137" lon="6.38997">
        <ele>177.6</ele>
        <time>2019-11-13T13:09:17Z</time>
      </trkpt>
      <trkpt lat="43.48128" lon="6.38995">
        <ele>177.8</ele>
        <time>2019-11-13T13:09:33Z</time>
      </trkpt>
      <trkpt lat="43.4812" lon="6.3899">
        <ele>178.1</ele>
        <time>2019-11-13T13:09:44Z</time>
      </trkpt>
      <trkpt lat="43.48111" lon="6.38985">
        <ele>178.2</ele>
        <time>2019-11-13T13:09:56Z</time>
      </trkpt>
      <trkpt lat="43.48101" lon="6.38983">
        <ele>177.7</ele>
        <time>2019-11-13T13:10:03Z</time>
      </trkpt>
      <trkpt lat="43.48092" lon="6.38981">
        <ele>176.9</ele>
        <time>2019-11-13T13:10:12Z</time>
      </trkpt>
      <trkpt lat="43.48083" lon="6.3898">
        <ele>176.4</ele>
        <time>2019-11-13T13:10:20Z</time>
      </trkpt>
      <trkpt lat="43.48073" lon="6.38977">
        <ele>176</ele>
        <time>2019-11-13T13:10:31Z</time>
      </trkpt>
      <trkpt lat="43.48064" lon="6.38975">
        <ele>176</ele>
        <time>2019-11-13T13:10:40Z</time>
      </trkpt>
      <trkpt lat="43.48054" lon="6.38973">
        <ele>176.5</ele>
        <time>2019-11-13T13:10:50Z</time>
      </trkpt>
      <trkpt lat="43.48046" lon="6.38969">
        <ele>176.7</ele>
        <time>2019-11-13T13:10:59Z</time>
      </trkpt>
      <trkpt lat="43.48037" lon="6.38964">
        <ele>176.7</ele>
        <time>2019-11-13T13:11:08Z</time>
      </trkpt>
      <trkpt lat="43.48028" lon="6.38961">
        <ele>176.5</ele>
        <time>2019-11-13T13:11:18Z</time>
      </trkpt>
      <trkpt lat="43.48019" lon="6.38957">
        <ele>176.6</ele>
        <time>2019-11-13T13:11:27Z</time>
      </trkpt>
      <trkpt lat="43.4801" lon="6.38955">
        <ele>176.7</ele>
        <time>2019-11-13T13:11:37Z</time>
      </trkpt>
      <trkpt lat="43.48" lon="6.38954">
        <ele>176.3</ele>
        <time>2019-11-13T13:11:45Z</time>
      </trkpt>
      <trkpt lat="43.47991" lon="6.38951">
        <ele>177</ele>
        <time>2019-11-13T13:11:55Z</time>
      </trkpt>
      <trkpt lat="43.47981" lon="6.38948">
        <ele>177.8</ele>
        <time>2019-11-13T13:12:05Z</time>
      </trkpt>
      <trkpt lat="43.47974" lon="6.3894">
        <ele>177.2</ele>
        <time>2019-11-13T13:12:15Z</time>
      </trkpt>
      <trkpt lat="43.47969" lon="6.38928">
        <ele>175.9</ele>
        <time>2019-11-13T13:12:25Z</time>
      </trkpt>
      <trkpt lat="43.47966" lon="6.38916">
        <ele>174.8</ele>
        <time>2019-11-13T13:12:34Z</time>
      </trkpt>
      <trkpt lat="43.47965" lon="6.38903">
        <ele>174.2</ele>
        <time>2019-11-13T13:12:43Z</time>
      </trkpt>
      <trkpt lat="43.4796" lon="6.38892">
        <ele>173.6</ele>
        <time>2019-11-13T13:12:51Z</time>
      </trkpt>
      <trkpt lat="43.47959" lon="6.38879">
        <ele>173.2</ele>
        <time>2019-11-13T13:13:00Z</time>
      </trkpt>
      <trkpt lat="43.47957" lon="6.38865">
        <ele>173.5</ele>
        <time>2019-11-13T13:13:13Z</time>
      </trkpt>
      <trkpt lat="43.47952" lon="6.38855">
        <ele>174.1</ele>
        <time>2019-11-13T13:13:23Z</time>
      </trkpt>
      <trkpt lat="43.47949" lon="6.38842">
        <ele>175.4</ele>
        <time>2019-11-13T13:13:33Z</time>
      </trkpt>
      <trkpt lat="43.47944" lon="6.38854">
        <ele>176.9</ele>
        <time>2019-11-13T13:14:03Z</time>
      </trkpt>
      <trkpt lat="43.47939" lon="6.38865">
        <ele>176.4</ele>
        <time>2019-11-13T13:14:12Z</time>
      </trkpt>
      <trkpt lat="43.47938" lon="6.38878">
        <ele>175.6</ele>
        <time>2019-11-13T13:14:22Z</time>
      </trkpt>
      <trkpt lat="43.47933" lon="6.38889">
        <ele>174.9</ele>
        <time>2019-11-13T13:14:31Z</time>
      </trkpt>
      <trkpt lat="43.47926" lon="6.38898">
        <ele>174.4</ele>
        <time>2019-11-13T13:14:36Z</time>
      </trkpt>
      <trkpt lat="43.4792" lon="6.38909">
        <ele>174.1</ele>
        <time>2019-11-13T13:14:43Z</time>
      </trkpt>
      <trkpt lat="43.47913" lon="6.38918">
        <ele>173.6</ele>
        <time>2019-11-13T13:14:50Z</time>
      </trkpt>
      <trkpt lat="43.47906" lon="6.38928">
        <ele>173.1</ele>
        <time>2019-11-13T13:14:59Z</time>
      </trkpt>
      <trkpt lat="43.47899" lon="6.38936">
        <ele>172.5</ele>
        <time>2019-11-13T13:15:07Z</time>
      </trkpt>
      <trkpt lat="43.47893" lon="6.38945">
        <ele>172.3</ele>
        <time>2019-11-13T13:15:15Z</time>
      </trkpt>
      <trkpt lat="43.47888" lon="6.38956">
        <ele>171.6</ele>
        <time>2019-11-13T13:15:25Z</time>
      </trkpt>
      <trkpt lat="43.47884" lon="6.38967">
        <ele>171.2</ele>
        <time>2019-11-13T13:15:45Z</time>
      </trkpt>
      <trkpt lat="43.4788" lon="6.38979">
        <ele>171.1</ele>
        <time>2019-11-13T13:16:07Z</time>
      </trkpt>
      <trkpt lat="43.47875" lon="6.3899">
        <ele>171.4</ele>
        <time>2019-11-13T13:16:19Z</time>
      </trkpt>
      <trkpt lat="43.4787" lon="6.39001">
        <ele>171.7</ele>
        <time>2019-11-13T13:16:30Z</time>
      </trkpt>
      <trkpt lat="43.47869" lon="6.39014">
        <ele>172</ele>
        <time>2019-11-13T13:16:41Z</time>
      </trkpt>
      <trkpt lat="43.47861" lon="6.39023">
        <ele>171.5</ele>
        <time>2019-11-13T13:16:49Z</time>
      </trkpt>
      <trkpt lat="43.47854" lon="6.39029">
        <ele>171.2</ele>
        <time>2019-11-13T13:16:56Z</time>
      </trkpt>
      <trkpt lat="43.47844" lon="6.39032">
        <ele>170.7</ele>
        <time>2019-11-13T13:17:04Z</time>
      </trkpt>
      <trkpt lat="43.47834" lon="6.39036">
        <ele>170.4</ele>
        <time>2019-11-13T13:17:11Z</time>
      </trkpt>
      <trkpt lat="43.47826" lon="6.39043">
        <ele>169.6</ele>
        <time>2019-11-13T13:17:20Z</time>
      </trkpt>
      <trkpt lat="43.47818" lon="6.39049">
        <ele>169</ele>
        <time>2019-11-13T13:17:30Z</time>
      </trkpt>
      <trkpt lat="43.4781" lon="6.39056">
        <ele>168.4</ele>
        <time>2019-11-13T13:17:36Z</time>
      </trkpt>
      <trkpt lat="43.47804" lon="6.39066">
        <ele>167</ele>
        <time>2019-11-13T13:17:50Z</time>
      </trkpt>
      <trkpt lat="43.47796" lon="6.39074">
        <ele>166.5</ele>
        <time>2019-11-13T13:17:58Z</time>
      </trkpt>
      <trkpt lat="43.47787" lon="6.39081">
        <ele>165.9</ele>
        <time>2019-11-13T13:18:07Z</time>
      </trkpt>
      <trkpt lat="43.47778" lon="6.39085">
        <ele>165.7</ele>
        <time>2019-11-13T13:18:12Z</time>
      </trkpt>
      <trkpt lat="43.47768" lon="6.39088">
        <ele>165.1</ele>
        <time>2019-11-13T13:18:17Z</time>
      </trkpt>
      <trkpt lat="43.47759" lon="6.3909">
        <ele>164.8</ele>
        <time>2019-11-13T13:18:23Z</time>
      </trkpt>
      <trkpt lat="43.4775" lon="6.39096">
        <ele>164.2</ele>
        <time>2019-11-13T13:18:31Z</time>
      </trkpt>
      <trkpt lat="43.47741" lon="6.39102">
        <ele>164.1</ele>
        <time>2019-11-13T13:18:39Z</time>
      </trkpt>
      <trkpt lat="43.47737" lon="6.39116">
        <ele>163.7</ele>
        <time>2019-11-13T13:18:51Z</time>
      </trkpt>
      <trkpt lat="43.47729" lon="6.39123">
        <ele>163.3</ele>
        <time>2019-11-13T13:18:58Z</time>
      </trkpt>
      <trkpt lat="43.4772" lon="6.39129">
        <ele>162.9</ele>
        <time>2019-11-13T13:19:04Z</time>
      </trkpt>
      <trkpt lat="43.47711" lon="6.39137">
        <ele>162.2</ele>
        <time>2019-11-13T13:19:11Z</time>
      </trkpt>
      <trkpt lat="43.47705" lon="6.39147">
        <ele>161.6</ele>
        <time>2019-11-13T13:19:21Z</time>
      </trkpt>
      <trkpt lat="43.47697" lon="6.39156">
        <ele>161.3</ele>
        <time>2019-11-13T13:19:30Z</time>
      </trkpt>
      <trkpt lat="43.47689" lon="6.39164">
        <ele>161.2</ele>
        <time>2019-11-13T13:19:36Z</time>
      </trkpt>
      <trkpt lat="43.47681" lon="6.39173">
        <ele>161</ele>
        <time>2019-11-13T13:19:45Z</time>
      </trkpt>
      <trkpt lat="43.47673" lon="6.39181">
        <ele>160.8</ele>
        <time>2019-11-13T13:19:53Z</time>
      </trkpt>
      <trkpt lat="43.47665" lon="6.39186">
        <ele>160.8</ele>
        <time>2019-11-13T13:19:58Z</time>
      </trkpt>
      <trkpt lat="43.47656" lon="6.39191">
        <ele>160.3</ele>
        <time>2019-11-13T13:20:06Z</time>
      </trkpt>
      <trkpt lat="43.47647" lon="6.39196">
        <ele>159.8</ele>
        <time>2019-11-13T13:20:12Z</time>
      </trkpt>
      <trkpt lat="43.47639" lon="6.39203">
        <ele>159.5</ele>
        <time>2019-11-13T13:20:18Z</time>
      </trkpt>
      <trkpt lat="43.4763" lon="6.39209">
        <ele>159.4</ele>
        <time>2019-11-13T13:20:24Z</time>
      </trkpt>
      <trkpt lat="43.47621" lon="6.39214">
        <ele>159.2</ele>
        <time>2019-11-13T13:20:33Z</time>
      </trkpt>
      <trkpt lat="43.47612" lon="6.39222">
        <ele>159.1</ele>
        <time>2019-11-13T13:20:41Z</time>
      </trkpt>
      <trkpt lat="43.47604" lon="6.3923">
        <ele>159.1</ele>
        <time>2019-11-13T13:20:47Z</time>
      </trkpt>
      <trkpt lat="43.47602" lon="6.39242">
        <ele>158.9</ele>
        <time>2019-11-13T13:20:56Z</time>
      </trkpt>
      <trkpt lat="43.47603" lon="6.39256">
        <ele>158.8</ele>
        <time>2019-11-13T13:21:02Z</time>
      </trkpt>
      <trkpt lat="43.47604" lon="6.39269">
        <ele>158.7</ele>
        <time>2019-11-13T13:21:09Z</time>
      </trkpt>
      <trkpt lat="43.47603" lon="6.39283">
        <ele>158.4</ele>
        <time>2019-11-13T13:21:19Z</time>
      </trkpt>
      <trkpt lat="43.47601" lon="6.39295">
        <ele>158.2</ele>
        <time>2019-11-13T13:21:26Z</time>
      </trkpt>
      <trkpt lat="43.476" lon="6.39309">
        <ele>158</ele>
        <time>2019-11-13T13:21:34Z</time>
      </trkpt>
      <trkpt lat="43.47598" lon="6.39322">
        <ele>157.6</ele>
        <time>2019-11-13T13:21:41Z</time>
      </trkpt>
      <trkpt lat="43.47593" lon="6.39333">
        <ele>157</ele>
        <time>2019-11-13T13:21:52Z</time>
      </trkpt>
      <trkpt lat="43.47584" lon="6.39336">
        <ele>156.6</ele>
        <time>2019-11-13T13:22:09Z</time>
      </trkpt>
      <trkpt lat="43.47575" lon="6.39335">
        <ele>157.2</ele>
        <time>2019-11-13T13:22:16Z</time>
      </trkpt>
      <trkpt lat="43.47565" lon="6.39332">
        <ele>157.7</ele>
        <time>2019-11-13T13:22:26Z</time>
      </trkpt>
      <trkpt lat="43.47557" lon="6.39327">
        <ele>158.2</ele>
        <time>2019-11-13T13:22:37Z</time>
      </trkpt>
      <trkpt lat="43.47548" lon="6.39324">
        <ele>158.7</ele>
        <time>2019-11-13T13:22:45Z</time>
      </trkpt>
      <trkpt lat="43.47539" lon="6.3932">
        <ele>159.3</ele>
        <time>2019-11-13T13:22:53Z</time>
      </trkpt>
      <trkpt lat="43.47529" lon="6.39317">
        <ele>160.1</ele>
        <time>2019-11-13T13:23:03Z</time>
      </trkpt>
      <trkpt lat="43.4752" lon="6.39316">
        <ele>160.8</ele>
        <time>2019-11-13T13:23:11Z</time>
      </trkpt>
      <trkpt lat="43.47512" lon="6.3932">
        <ele>161.4</ele>
        <time>2019-11-13T13:23:18Z</time>
      </trkpt>
      <trkpt lat="43.47504" lon="6.39328">
        <ele>162.4</ele>
        <time>2019-11-13T13:23:28Z</time>
      </trkpt>
      <trkpt lat="43.47496" lon="6.39334">
        <ele>163</ele>
        <time>2019-11-13T13:23:37Z</time>
      </trkpt>
      <trkpt lat="43.47491" lon="6.39345">
        <ele>163.7</ele>
        <time>2019-11-13T13:23:47Z</time>
      </trkpt>
      <trkpt lat="43.47484" lon="6.39353">
        <ele>164</ele>
        <time>2019-11-13T13:23:54Z</time>
      </trkpt>
      <trkpt lat="43.47479" lon="6.39363">
        <ele>164.5</ele>
        <time>2019-11-13T13:24:03Z</time>
      </trkpt>
      <trkpt lat="43.47474" lon="6.39373">
        <ele>165.1</ele>
        <time>2019-11-13T13:24:22Z</time>
      </trkpt>
      <trkpt lat="43.47468" lon="6.39383">
        <ele>165.3</ele>
        <time>2019-11-13T13:24:32Z</time>
      </trkpt>
      <trkpt lat="43.47461" lon="6.39392">
        <ele>165.3</ele>
        <time>2019-11-13T13:24:42Z</time>
      </trkpt>
      <trkpt lat="43.47456" lon="6.39403">
        <ele>165.4</ele>
        <time>2019-11-13T13:24:57Z</time>
      </trkpt>
      <trkpt lat="43.47453" lon="6.39416">
        <ele>165.4</ele>
        <time>2019-11-13T13:25:11Z</time>
      </trkpt>
      <trkpt lat="43.47451" lon="6.39428">
        <ele>165.6</ele>
        <time>2019-11-13T13:25:25Z</time>
      </trkpt>
      <trkpt lat="43.47447" lon="6.3944">
        <ele>165.5</ele>
        <time>2019-11-13T13:25:35Z</time>
      </trkpt>
      <trkpt lat="43.47442" lon="6.39451">
        <ele>165.2</ele>
        <time>2019-11-13T13:25:44Z</time>
      </trkpt>
      <trkpt lat="43.4744" lon="6.39463">
        <ele>165.1</ele>
        <time>2019-11-13T13:25:51Z</time>
      </trkpt>
      <trkpt lat="43.47434" lon="6.39473">
        <ele>165.2</ele>
        <time>2019-11-13T13:25:58Z</time>
      </trkpt>
      <trkpt lat="43.47429" lon="6.39485">
        <ele>165.3</ele>
        <time>2019-11-13T13:26:06Z</time>
      </trkpt>
      <trkpt lat="43.47424" lon="6.39497">
        <ele>165.4</ele>
        <time>2019-11-13T13:26:15Z</time>
      </trkpt>
      <trkpt lat="43.47418" lon="6.39507">
        <ele>165.7</ele>
        <time>2019-11-13T13:26:23Z</time>
      </trkpt>
      <trkpt lat="43.47411" lon="6.39515">
        <ele>165.9</ele>
        <time>2019-11-13T13:26:31Z</time>
      </trkpt>
      <trkpt lat="43.47406" lon="6.39526">
        <ele>166.3</ele>
        <time>2019-11-13T13:26:41Z</time>
      </trkpt>
      <trkpt lat="43.47403" lon="6.39539">
        <ele>166.9</ele>
        <time>2019-11-13T13:26:50Z</time>
      </trkpt>
      <trkpt lat="43.47398" lon="6.39551">
        <ele>167.3</ele>
        <time>2019-11-13T13:26:59Z</time>
      </trkpt>
      <trkpt lat="43.47394" lon="6.39563">
        <ele>167.9</ele>
        <time>2019-11-13T13:27:08Z</time>
      </trkpt>
      <trkpt lat="43.47391" lon="6.39575">
        <ele>168.3</ele>
        <time>2019-11-13T13:27:16Z</time>
      </trkpt>
      <trkpt lat="43.47389" lon="6.39587">
        <ele>168.9</ele>
        <time>2019-11-13T13:27:24Z</time>
      </trkpt>
      <trkpt lat="43.47387" lon="6.396">
        <ele>169.9</ele>
        <time>2019-11-13T13:27:35Z</time>
      </trkpt>
      <trkpt lat="43.47386" lon="6.39613">
        <ele>170.7</ele>
        <time>2019-11-13T13:27:44Z</time>
      </trkpt>
      <trkpt lat="43.47385" lon="6.39626">
        <ele>171.1</ele>
        <time>2019-11-13T13:27:51Z</time>
      </trkpt>
      <trkpt lat="43.47382" lon="6.39638">
        <ele>171.4</ele>
        <time>2019-11-13T13:28:01Z</time>
      </trkpt>
      <trkpt lat="43.47379" lon="6.39652">
        <ele>171.6</ele>
        <time>2019-11-13T13:28:11Z</time>
      </trkpt>
      <trkpt lat="43.47374" lon="6.39664">
        <ele>171.8</ele>
        <time>2019-11-13T13:28:21Z</time>
      </trkpt>
      <trkpt lat="43.4737" lon="6.39676">
        <ele>171.9</ele>
        <time>2019-11-13T13:28:31Z</time>
      </trkpt>
      <trkpt lat="43.47364" lon="6.39686">
        <ele>171.9</ele>
        <time>2019-11-13T13:28:40Z</time>
      </trkpt>
      <trkpt lat="43.4736" lon="6.39699">
        <ele>172.1</ele>
        <time>2019-11-13T13:28:50Z</time>
      </trkpt>
      <trkpt lat="43.47355" lon="6.3971">
        <ele>172.8</ele>
        <time>2019-11-13T13:29:01Z</time>
      </trkpt>
      <trkpt lat="43.47348" lon="6.39718">
        <ele>173.4</ele>
        <time>2019-11-13T13:29:10Z</time>
      </trkpt>
      <trkpt lat="43.47344" lon="6.3973">
        <ele>174.8</ele>
        <time>2019-11-13T13:29:23Z</time>
      </trkpt>
      <trkpt lat="43.47341" lon="6.39742">
        <ele>175.6</ele>
        <time>2019-11-13T13:29:31Z</time>
      </trkpt>
      <trkpt lat="43.47338" lon="6.39755">
        <ele>176.7</ele>
        <time>2019-11-13T13:29:40Z</time>
      </trkpt>
      <trkpt lat="43.47333" lon="6.39766">
        <ele>177.3</ele>
        <time>2019-11-13T13:29:49Z</time>
      </trkpt>
      <trkpt lat="43.47332" lon="6.39778">
        <ele>178</ele>
        <time>2019-11-13T13:29:59Z</time>
      </trkpt>
      <trkpt lat="43.47327" lon="6.3979">
        <ele>179.5</ele>
        <time>2019-11-13T13:30:12Z</time>
      </trkpt>
      <trkpt lat="43.4732" lon="6.39798">
        <ele>180.1</ele>
        <time>2019-11-13T13:30:21Z</time>
      </trkpt>
      <trkpt lat="43.47316" lon="6.3981">
        <ele>180.7</ele>
        <time>2019-11-13T13:30:31Z</time>
      </trkpt>
      <trkpt lat="43.4731" lon="6.39819">
        <ele>181.5</ele>
        <time>2019-11-13T13:30:40Z</time>
      </trkpt>
      <trkpt lat="43.47304" lon="6.39829">
        <ele>182.1</ele>
        <time>2019-11-13T13:30:46Z</time>
      </trkpt>
      <trkpt lat="43.47298" lon="6.39838">
        <ele>182.4</ele>
        <time>2019-11-13T13:30:52Z</time>
      </trkpt>
      <trkpt lat="43.47292" lon="6.39849">
        <ele>182.6</ele>
        <time>2019-11-13T13:31:00Z</time>
      </trkpt>
      <trkpt lat="43.47286" lon="6.39858">
        <ele>182.7</ele>
        <time>2019-11-13T13:31:09Z</time>
      </trkpt>
      <trkpt lat="43.47278" lon="6.39866">
        <ele>182.8</ele>
        <time>2019-11-13T13:31:16Z</time>
      </trkpt>
      <trkpt lat="43.4727" lon="6.39874">
        <ele>183.1</ele>
        <time>2019-11-13T13:31:24Z</time>
      </trkpt>
      <trkpt lat="43.47263" lon="6.39883">
        <ele>183.3</ele>
        <time>2019-11-13T13:31:32Z</time>
      </trkpt>
      <trkpt lat="43.47258" lon="6.39895">
        <ele>183.3</ele>
        <time>2019-11-13T13:31:42Z</time>
      </trkpt>
      <trkpt lat="43.47257" lon="6.39908">
        <ele>183.7</ele>
        <time>2019-11-13T13:31:52Z</time>
      </trkpt>
      <trkpt lat="43.47257" lon="6.39921">
        <ele>183.9</ele>
        <time>2019-11-13T13:32:02Z</time>
      </trkpt>
      <trkpt lat="43.47256" lon="6.39934">
        <ele>184.5</ele>
        <time>2019-11-13T13:32:10Z</time>
      </trkpt>
      <trkpt lat="43.47256" lon="6.39947">
        <ele>185</ele>
        <time>2019-11-13T13:32:18Z</time>
      </trkpt>
      <trkpt lat="43.47256" lon="6.3996">
        <ele>185.7</ele>
        <time>2019-11-13T13:32:28Z</time>
      </trkpt>
      <trkpt lat="43.47253" lon="6.39973">
        <ele>186.1</ele>
        <time>2019-11-13T13:32:38Z</time>
      </trkpt>
      <trkpt lat="43.47249" lon="6.39985">
        <ele>186.1</ele>
        <time>2019-11-13T13:32:46Z</time>
      </trkpt>
      <trkpt lat="43.47249" lon="6.39998">
        <ele>186.4</ele>
        <time>2019-11-13T13:32:55Z</time>
      </trkpt>
      <trkpt lat="43.47247" lon="6.4001">
        <ele>187.4</ele>
        <time>2019-11-13T13:33:08Z</time>
      </trkpt>
      <trkpt lat="43.47242" lon="6.40021">
        <ele>187.8</ele>
        <time>2019-11-13T13:34:28Z</time>
      </trkpt>
      <trkpt lat="43.47235" lon="6.4003">
        <ele>187.7</ele>
        <time>2019-11-13T13:35:09Z</time>
      </trkpt>
      <trkpt lat="43.47233" lon="6.40043">
        <ele>187.2</ele>
        <time>2019-11-13T13:35:27Z</time>
      </trkpt>
      <trkpt lat="43.47227" lon="6.40054">
        <ele>186.2</ele>
        <time>2019-11-13T13:35:39Z</time>
      </trkpt>
      <trkpt lat="43.47221" lon="6.40064">
        <ele>185.3</ele>
        <time>2019-11-13T13:35:51Z</time>
      </trkpt>
      <trkpt lat="43.47217" lon="6.40076">
        <ele>184.5</ele>
        <time>2019-11-13T13:36:01Z</time>
      </trkpt>
      <trkpt lat="43.47207" lon="6.40083">
        <ele>183.9</ele>
        <time>2019-11-13T13:36:07Z</time>
      </trkpt>
      <trkpt lat="43.47198" lon="6.40083">
        <ele>183.1</ele>
        <time>2019-11-13T13:36:14Z</time>
      </trkpt>
      <trkpt lat="43.4719" lon="6.40076">
        <ele>182.5</ele>
        <time>2019-11-13T13:36:26Z</time>
      </trkpt>
      <trkpt lat="43.47181" lon="6.40075">
        <ele>182.2</ele>
        <time>2019-11-13T13:36:35Z</time>
      </trkpt>
      <trkpt lat="43.47171" lon="6.40075">
        <ele>181.9</ele>
        <time>2019-11-13T13:36:44Z</time>
      </trkpt>
      <trkpt lat="43.47162" lon="6.40079">
        <ele>180.3</ele>
        <time>2019-11-13T13:36:55Z</time>
      </trkpt>
      <trkpt lat="43.47154" lon="6.40084">
        <ele>179.8</ele>
        <time>2019-11-13T13:37:05Z</time>
      </trkpt>
      <trkpt lat="43.47147" lon="6.40091">
        <ele>179.6</ele>
        <time>2019-11-13T13:37:14Z</time>
      </trkpt>
      <trkpt lat="43.47139" lon="6.40098">
        <ele>179.5</ele>
        <time>2019-11-13T13:37:24Z</time>
      </trkpt>
      <trkpt lat="43.4713" lon="6.40104">
        <ele>179.8</ele>
        <time>2019-11-13T13:37:34Z</time>
      </trkpt>
      <trkpt lat="43.47122" lon="6.4011">
        <ele>180.3</ele>
        <time>2019-11-13T13:37:44Z</time>
      </trkpt>
      <trkpt lat="43.47113" lon="6.40117">
        <ele>180.8</ele>
        <time>2019-11-13T13:37:53Z</time>
      </trkpt>
      <trkpt lat="43.47106" lon="6.40125">
        <ele>181.4</ele>
        <time>2019-11-13T13:38:03Z</time>
      </trkpt>
      <trkpt lat="43.47098" lon="6.40133">
        <ele>181.8</ele>
        <time>2019-11-13T13:38:13Z</time>
      </trkpt>
      <trkpt lat="43.47089" lon="6.40138">
        <ele>182.3</ele>
        <time>2019-11-13T13:38:20Z</time>
      </trkpt>
      <trkpt lat="43.47081" lon="6.40143">
        <ele>183.1</ele>
        <time>2019-11-13T13:38:29Z</time>
      </trkpt>
      <trkpt lat="43.47073" lon="6.40151">
        <ele>184.3</ele>
        <time>2019-11-13T13:38:40Z</time>
      </trkpt>
      <trkpt lat="43.47065" lon="6.40156">
        <ele>184.8</ele>
        <time>2019-11-13T13:38:47Z</time>
      </trkpt>
      <trkpt lat="43.47058" lon="6.40164">
        <ele>185.3</ele>
        <time>2019-11-13T13:38:58Z</time>
      </trkpt>
      <trkpt lat="43.47051" lon="6.40175">
        <ele>185.5</ele>
        <time>2019-11-13T13:39:10Z</time>
      </trkpt>
      <trkpt lat="43.47043" lon="6.40183">
        <ele>185.7</ele>
        <time>2019-11-13T13:39:19Z</time>
      </trkpt>
      <trkpt lat="43.47036" lon="6.40191">
        <ele>185.5</ele>
        <time>2019-11-13T13:39:27Z</time>
      </trkpt>
      <trkpt lat="43.47029" lon="6.402">
        <ele>185.7</ele>
        <time>2019-11-13T13:39:38Z</time>
      </trkpt>
      <trkpt lat="43.47021" lon="6.40207">
        <ele>185.9</ele>
        <time>2019-11-13T13:39:46Z</time>
      </trkpt>
      <trkpt lat="43.47014" lon="6.40216">
        <ele>186.1</ele>
        <time>2019-11-13T13:39:53Z</time>
      </trkpt>
      <trkpt lat="43.47008" lon="6.40225">
        <ele>185.8</ele>
        <time>2019-11-13T13:40:02Z</time>
      </trkpt>
      <trkpt lat="43.47" lon="6.40231">
        <ele>185.7</ele>
        <time>2019-11-13T13:40:10Z</time>
      </trkpt>
      <trkpt lat="43.46991" lon="6.40238">
        <ele>185.4</ele>
        <time>2019-11-13T13:40:17Z</time>
      </trkpt>
      <trkpt lat="43.46982" lon="6.40242">
        <ele>185</ele>
        <time>2019-11-13T13:40:26Z</time>
      </trkpt>
      <trkpt lat="43.46974" lon="6.40248">
        <ele>184.7</ele>
        <time>2019-11-13T13:40:32Z</time>
      </trkpt>
      <trkpt lat="43.46966" lon="6.40255">
        <ele>184.7</ele>
        <time>2019-11-13T13:40:41Z</time>
      </trkpt>
      <trkpt lat="43.4696" lon="6.40265">
        <ele>184.8</ele>
        <time>2019-11-13T13:40:52Z</time>
      </trkpt>
      <trkpt lat="43.46954" lon="6.40275">
        <ele>185.5</ele>
        <time>2019-11-13T13:41:04Z</time>
      </trkpt>
      <trkpt lat="43.46947" lon="6.40284">
        <ele>186</ele>
        <time>2019-11-13T13:41:14Z</time>
      </trkpt>
      <trkpt lat="43.46943" lon="6.40295">
        <ele>186.3</ele>
        <time>2019-11-13T13:41:24Z</time>
      </trkpt>
      <trkpt lat="43.46935" lon="6.40302">
        <ele>186.5</ele>
        <time>2019-11-13T13:41:33Z</time>
      </trkpt>
      <trkpt lat="43.46927" lon="6.40309">
        <ele>186.5</ele>
        <time>2019-11-13T13:41:45Z</time>
      </trkpt>
      <trkpt lat="43.46919" lon="6.40317">
        <ele>186.5</ele>
        <time>2019-11-13T13:42:01Z</time>
      </trkpt>
      <trkpt lat="43.4691" lon="6.40322">
        <ele>187.5</ele>
        <time>2019-11-13T13:42:27Z</time>
      </trkpt>
      <trkpt lat="43.46906" lon="6.40333">
        <ele>188.2</ele>
        <time>2019-11-13T13:42:40Z</time>
      </trkpt>
      <trkpt lat="43.46898" lon="6.4034">
        <ele>188.8</ele>
        <time>2019-11-13T13:42:50Z</time>
      </trkpt>
      <trkpt lat="43.46891" lon="6.40349">
        <ele>189</ele>
        <time>2019-11-13T13:43:00Z</time>
      </trkpt>
      <trkpt lat="43.46886" lon="6.4036">
        <ele>189.4</ele>
        <time>2019-11-13T13:43:09Z</time>
      </trkpt>
      <trkpt lat="43.4688" lon="6.4037">
        <ele>189.5</ele>
        <time>2019-11-13T13:43:17Z</time>
      </trkpt>
      <trkpt lat="43.46875" lon="6.4038">
        <ele>189.6</ele>
        <time>2019-11-13T13:43:27Z</time>
      </trkpt>
      <trkpt lat="43.4687" lon="6.40391">
        <ele>190.3</ele>
        <time>2019-11-13T13:44:57Z</time>
      </trkpt>
      <trkpt lat="43.46863" lon="6.40399">
        <ele>190.8</ele>
        <time>2019-11-13T13:46:45Z</time>
      </trkpt>
      <trkpt lat="43.4686" lon="6.40411">
        <ele>191.3</ele>
        <time>2019-11-13T13:46:57Z</time>
      </trkpt>
      <trkpt lat="43.46859" lon="6.40424">
        <ele>192</ele>
        <time>2019-11-13T13:47:11Z</time>
      </trkpt>
      <trkpt lat="43.46856" lon="6.40436">
        <ele>192.4</ele>
        <time>2019-11-13T13:47:22Z</time>
      </trkpt>
      <trkpt lat="43.46861" lon="6.40447">
        <ele>193.3</ele>
        <time>2019-11-13T13:47:52Z</time>
      </trkpt>
      <trkpt lat="43.46854" lon="6.40456">
        <ele>193.8</ele>
        <time>2019-11-13T13:48:53Z</time>
      </trkpt>
      <trkpt lat="43.46849" lon="6.40466">
        <ele>195</ele>
        <time>2019-11-13T13:50:01Z</time>
      </trkpt>
      <trkpt lat="43.46855" lon="6.40475">
        <ele>195.9</ele>
        <time>2019-11-13T13:50:56Z</time>
      </trkpt>
      <trkpt lat="43.46861" lon="6.40485">
        <ele>198.6</ele>
        <time>2019-11-13T13:51:20Z</time>
      </trkpt>
      <trkpt lat="43.46867" lon="6.40494">
        <ele>199.6</ele>
        <time>2019-11-13T13:51:34Z</time>
      </trkpt>
      <trkpt lat="43.46875" lon="6.40502">
        <ele>200.9</ele>
        <time>2019-11-13T13:51:51Z</time>
      </trkpt>
      <trkpt lat="43.4688" lon="6.40513">
        <ele>201.7</ele>
        <time>2019-11-13T13:52:02Z</time>
      </trkpt>
      <trkpt lat="43.46885" lon="6.40524">
        <ele>202.9</ele>
        <time>2019-11-13T13:52:13Z</time>
      </trkpt>
      <trkpt lat="43.46893" lon="6.40531">
        <ele>204.7</ele>
        <time>2019-11-13T13:52:30Z</time>
      </trkpt>
      <trkpt lat="43.469" lon="6.4054">
        <ele>205.7</ele>
        <time>2019-11-13T13:52:37Z</time>
      </trkpt>
      <trkpt lat="43.46907" lon="6.40548">
        <ele>206.7</ele>
        <time>2019-11-13T13:52:46Z</time>
      </trkpt>
      <trkpt lat="43.46914" lon="6.40557">
        <ele>207.6</ele>
        <time>2019-11-13T13:52:57Z</time>
      </trkpt>
      <trkpt lat="43.46921" lon="6.40566">
        <ele>208.7</ele>
        <time>2019-11-13T13:53:06Z</time>
      </trkpt>
      <trkpt lat="43.46926" lon="6.40578">
        <ele>208.7</ele>
        <time>2019-11-13T13:53:15Z</time>
      </trkpt>
      <trkpt lat="43.46928" lon="6.4059">
        <ele>208.7</ele>
        <time>2019-11-13T13:53:23Z</time>
      </trkpt>
      <trkpt lat="43.46928" lon="6.40602">
        <ele>208.5</ele>
        <time>2019-11-13T13:53:30Z</time>
      </trkpt>
      <trkpt lat="43.46924" lon="6.40614">
        <ele>208.5</ele>
        <time>2019-11-13T13:53:43Z</time>
      </trkpt>
      <trkpt lat="43.46918" lon="6.40623">
        <ele>209.5</ele>
        <time>2019-11-13T13:54:01Z</time>
      </trkpt>
      <trkpt lat="43.46908" lon="6.40623">
        <ele>211.5</ele>
        <time>2019-11-13T13:54:23Z</time>
      </trkpt>
      <trkpt lat="43.46898" lon="6.40625">
        <ele>212.1</ele>
        <time>2019-11-13T13:54:33Z</time>
      </trkpt>
      <trkpt lat="43.46888" lon="6.40628">
        <ele>212.7</ele>
        <time>2019-11-13T13:54:42Z</time>
      </trkpt>
      <trkpt lat="43.46879" lon="6.40631">
        <ele>213.2</ele>
        <time>2019-11-13T13:54:48Z</time>
      </trkpt>
      <trkpt lat="43.4687" lon="6.40634">
        <ele>213.8</ele>
        <time>2019-11-13T13:54:56Z</time>
      </trkpt>
      <trkpt lat="43.46861" lon="6.40635">
        <ele>214.1</ele>
        <time>2019-11-13T13:55:05Z</time>
      </trkpt>
      <trkpt lat="43.46851" lon="6.40636">
        <ele>214.6</ele>
        <time>2019-11-13T13:55:12Z</time>
      </trkpt>
      <trkpt lat="43.46841" lon="6.40636">
        <ele>215.4</ele>
        <time>2019-11-13T13:55:20Z</time>
      </trkpt>
      <trkpt lat="43.46833" lon="6.40639">
        <ele>216.1</ele>
        <time>2019-11-13T13:55:32Z</time>
      </trkpt>
      <trkpt lat="43.46823" lon="6.40641">
        <ele>216.8</ele>
        <time>2019-11-13T13:55:41Z</time>
      </trkpt>
      <trkpt lat="43.46815" lon="6.40647">
        <ele>217.4</ele>
        <time>2019-11-13T13:55:51Z</time>
      </trkpt>
      <trkpt lat="43.46807" lon="6.40654">
        <ele>218.6</ele>
        <time>2019-11-13T13:56:02Z</time>
      </trkpt>
      <trkpt lat="43.468" lon="6.40663">
        <ele>219.5</ele>
        <time>2019-11-13T13:56:12Z</time>
      </trkpt>
      <trkpt lat="43.46791" lon="6.40669">
        <ele>220.2</ele>
        <time>2019-11-13T13:56:22Z</time>
      </trkpt>
      <trkpt lat="43.46783" lon="6.40672">
        <ele>220.8</ele>
        <time>2019-11-13T13:56:31Z</time>
      </trkpt>
      <trkpt lat="43.46774" lon="6.40674">
        <ele>221.7</ele>
        <time>2019-11-13T13:56:39Z</time>
      </trkpt>
      <trkpt lat="43.46764" lon="6.40675">
        <ele>222.3</ele>
        <time>2019-11-13T13:56:47Z</time>
      </trkpt>
      <trkpt lat="43.46755" lon="6.40675">
        <ele>222.4</ele>
        <time>2019-11-13T13:56:55Z</time>
      </trkpt>
      <trkpt lat="43.46746" lon="6.40677">
        <ele>223.3</ele>
        <time>2019-11-13T13:57:05Z</time>
      </trkpt>
      <trkpt lat="43.46737" lon="6.40678">
        <ele>224.1</ele>
        <time>2019-11-13T13:57:12Z</time>
      </trkpt>
      <trkpt lat="43.46727" lon="6.40677">
        <ele>224.2</ele>
        <time>2019-11-13T13:57:19Z</time>
      </trkpt>
      <trkpt lat="43.46718" lon="6.40675">
        <ele>224.2</ele>
        <time>2019-11-13T13:57:25Z</time>
      </trkpt>
      <trkpt lat="43.46709" lon="6.40675">
        <ele>224.3</ele>
        <time>2019-11-13T13:57:31Z</time>
      </trkpt>
      <trkpt lat="43.467" lon="6.40678">
        <ele>224.3</ele>
        <time>2019-11-13T13:57:41Z</time>
      </trkpt>
      <trkpt lat="43.46693" lon="6.40686">
        <ele>224.4</ele>
        <time>2019-11-13T13:57:51Z</time>
      </trkpt>
      <trkpt lat="43.46688" lon="6.40697">
        <ele>225.6</ele>
        <time>2019-11-13T13:58:06Z</time>
      </trkpt>
      <trkpt lat="43.46679" lon="6.407">
        <ele>224.9</ele>
        <time>2019-11-13T14:01:35Z</time>
      </trkpt>
      <trkpt lat="43.46688" lon="6.407">
        <ele>225</ele>
        <time>2019-11-13T14:03:32Z</time>
      </trkpt>
      <trkpt lat="43.46685" lon="6.40688">
        <ele>224.7</ele>
        <time>2019-11-13T14:04:44Z</time>
      </trkpt>
      <trkpt lat="43.46683" lon="6.407">
        <ele>225.3</ele>
        <time>2019-11-13T14:06:07Z</time>
      </trkpt>
      <trkpt lat="43.46687" lon="6.40712">
        <ele>225</ele>
        <time>2019-11-13T14:06:20Z</time>
      </trkpt>
      <trkpt lat="43.46693" lon="6.40722">
        <ele>224.5</ele>
        <time>2019-11-13T14:06:34Z</time>
      </trkpt>
      <trkpt lat="43.46699" lon="6.40732">
        <ele>224.4</ele>
        <time>2019-11-13T14:06:47Z</time>
      </trkpt>
      <trkpt lat="43.46706" lon="6.40742">
        <ele>224.3</ele>
        <time>2019-11-13T14:06:56Z</time>
      </trkpt>
      <trkpt lat="43.46712" lon="6.40751">
        <ele>224.2</ele>
        <time>2019-11-13T14:07:06Z</time>
      </trkpt>
      <trkpt lat="43.46719" lon="6.4076">
        <ele>223.3</ele>
        <time>2019-11-13T14:07:17Z</time>
      </trkpt>
      <trkpt lat="43.46725" lon="6.4077">
        <ele>222.7</ele>
        <time>2019-11-13T14:07:27Z</time>
      </trkpt>
      <trkpt lat="43.46729" lon="6.40782">
        <ele>221.7</ele>
        <time>2019-11-13T14:07:40Z</time>
      </trkpt>
      <trkpt lat="43.46729" lon="6.40795">
        <ele>220.4</ele>
        <time>2019-11-13T14:07:57Z</time>
      </trkpt>
      <trkpt lat="43.46727" lon="6.40808">
        <ele>219.6</ele>
        <time>2019-11-13T14:08:08Z</time>
      </trkpt>
      <trkpt lat="43.46725" lon="6.4082">
        <ele>219</ele>
        <time>2019-11-13T14:08:18Z</time>
      </trkpt>
      <trkpt lat="43.4672" lon="6.40831">
        <ele>217.9</ele>
        <time>2019-11-13T14:08:32Z</time>
      </trkpt>
      <trkpt lat="43.46719" lon="6.40845">
        <ele>216.6</ele>
        <time>2019-11-13T14:08:41Z</time>
      </trkpt>
      <trkpt lat="43.46717" lon="6.40857">
        <ele>215</ele>
        <time>2019-11-13T14:08:52Z</time>
      </trkpt>
      <trkpt lat="43.46718" lon="6.4087">
        <ele>213.4</ele>
        <time>2019-11-13T14:09:03Z</time>
      </trkpt>
      <trkpt lat="43.46725" lon="6.40879">
        <ele>212.6</ele>
        <time>2019-11-13T14:09:14Z</time>
      </trkpt>
      <trkpt lat="43.4673" lon="6.40889">
        <ele>212.1</ele>
        <time>2019-11-13T14:09:27Z</time>
      </trkpt>
      <trkpt lat="43.46739" lon="6.40891">
        <ele>211</ele>
        <time>2019-11-13T14:09:45Z</time>
      </trkpt>
      <trkpt lat="43.46749" lon="6.40889">
        <ele>210.1</ele>
        <time>2019-11-13T14:09:56Z</time>
      </trkpt>
      <trkpt lat="43.46758" lon="6.40884">
        <ele>209.5</ele>
        <time>2019-11-13T14:10:04Z</time>
      </trkpt>
      <trkpt lat="43.46768" lon="6.40884">
        <ele>208.6</ele>
        <time>2019-11-13T14:10:16Z</time>
      </trkpt>
      <trkpt lat="43.46777" lon="6.40883">
        <ele>206.6</ele>
        <time>2019-11-13T14:10:30Z</time>
      </trkpt>
      <trkpt lat="43.46786" lon="6.4088">
        <ele>205.4</ele>
        <time>2019-11-13T14:10:38Z</time>
      </trkpt>
      <trkpt lat="43.46795" lon="6.40878">
        <ele>203.8</ele>
        <time>2019-11-13T14:10:50Z</time>
      </trkpt>
      <trkpt lat="43.46804" lon="6.40875">
        <ele>201.8</ele>
        <time>2019-11-13T14:11:06Z</time>
      </trkpt>
      <trkpt lat="43.46813" lon="6.40872">
        <ele>199</ele>
        <time>2019-11-13T14:11:26Z</time>
      </trkpt>
      <trkpt lat="43.46821" lon="6.40878">
        <ele>196.4</ele>
        <time>2019-11-13T14:11:45Z</time>
      </trkpt>
      <trkpt lat="43.46828" lon="6.40886">
        <ele>193.5</ele>
        <time>2019-11-13T14:12:10Z</time>
      </trkpt>
      <trkpt lat="43.46834" lon="6.40896">
        <ele>190.1</ele>
        <time>2019-11-13T14:12:35Z</time>
      </trkpt>
      <trkpt lat="43.46838" lon="6.40908">
        <ele>187.6</ele>
        <time>2019-11-13T14:12:52Z</time>
      </trkpt>
      <trkpt lat="43.46841" lon="6.40919">
        <ele>185.7</ele>
        <time>2019-11-13T14:13:07Z</time>
      </trkpt>
      <trkpt lat="43.46846" lon="6.4093">
        <ele>183.4</ele>
        <time>2019-11-13T14:13:22Z</time>
      </trkpt>
      <trkpt lat="43.46852" lon="6.40941">
        <ele>180.4</ele>
        <time>2019-11-13T14:13:39Z</time>
      </trkpt>
      <trkpt lat="43.46855" lon="6.40952">
        <ele>177.7</ele>
        <time>2019-11-13T14:13:54Z</time>
      </trkpt>
      <trkpt lat="43.4686" lon="6.40964">
        <ele>175.2</ele>
        <time>2019-11-13T14:14:11Z</time>
      </trkpt>
      <trkpt lat="43.46865" lon="6.40974">
        <ele>172.6</ele>
        <time>2019-11-13T14:14:27Z</time>
      </trkpt>
      <trkpt lat="43.46872" lon="6.40984">
        <ele>171.1</ele>
        <time>2019-11-13T14:14:42Z</time>
      </trkpt>
      <trkpt lat="43.46878" lon="6.40994">
        <ele>169.3</ele>
        <time>2019-11-13T14:14:52Z</time>
      </trkpt>
      <trkpt lat="43.46883" lon="6.41006">
        <ele>167.5</ele>
        <time>2019-11-13T14:15:01Z</time>
      </trkpt>
      <trkpt lat="43.46888" lon="6.41017">
        <ele>166</ele>
        <time>2019-11-13T14:15:09Z</time>
      </trkpt>
      <trkpt lat="43.46893" lon="6.41029">
        <ele>164.6</ele>
        <time>2019-11-13T14:15:18Z</time>
      </trkpt>
      <trkpt lat="43.46896" lon="6.4104">
        <ele>163.2</ele>
        <time>2019-11-13T14:15:25Z</time>
      </trkpt>
      <trkpt lat="43.46901" lon="6.41052">
        <ele>162.2</ele>
        <time>2019-11-13T14:15:33Z</time>
      </trkpt>
      <trkpt lat="43.46906" lon="6.41062">
        <ele>161.6</ele>
        <time>2019-11-13T14:15:41Z</time>
      </trkpt>
      <trkpt lat="43.46911" lon="6.41073">
        <ele>161.3</ele>
        <time>2019-11-13T14:15:51Z</time>
      </trkpt>
      <trkpt lat="43.46915" lon="6.41085">
        <ele>161.7</ele>
        <time>2019-11-13T14:16:00Z</time>
      </trkpt>
      <trkpt lat="43.4692" lon="6.41096">
        <ele>162.7</ele>
        <time>2019-11-13T14:16:11Z</time>
      </trkpt>
      <trkpt lat="43.46925" lon="6.41106">
        <ele>163.5</ele>
        <time>2019-11-13T14:16:24Z</time>
      </trkpt>
      <trkpt lat="43.46931" lon="6.41115">
        <ele>164.2</ele>
        <time>2019-11-13T14:17:02Z</time>
      </trkpt>
      <trkpt lat="43.46938" lon="6.41106">
        <ele>162.4</ele>
        <time>2019-11-13T14:19:27Z</time>
      </trkpt>
      <trkpt lat="43.46945" lon="6.41098">
        <ele>159.8</ele>
        <time>2019-11-13T14:19:42Z</time>
      </trkpt>
      <trkpt lat="43.46952" lon="6.41089">
        <ele>158.5</ele>
        <time>2019-11-13T14:19:52Z</time>
      </trkpt>
      <trkpt lat="43.46958" lon="6.4108">
        <ele>157.4</ele>
        <time>2019-11-13T14:20:03Z</time>
      </trkpt>
      <trkpt lat="43.46966" lon="6.41073">
        <ele>156.6</ele>
        <time>2019-11-13T14:20:13Z</time>
      </trkpt>
      <trkpt lat="43.46975" lon="6.41068">
        <ele>155.5</ele>
        <time>2019-11-13T14:20:24Z</time>
      </trkpt>
      <trkpt lat="43.46984" lon="6.41063">
        <ele>155</ele>
        <time>2019-11-13T14:20:31Z</time>
      </trkpt>
      <trkpt lat="43.46993" lon="6.41059">
        <ele>154.2</ele>
        <time>2019-11-13T14:20:40Z</time>
      </trkpt>
      <trkpt lat="43.47003" lon="6.41058">
        <ele>153.2</ele>
        <time>2019-11-13T14:20:50Z</time>
      </trkpt>
      <trkpt lat="43.47012" lon="6.41055">
        <ele>152.2</ele>
        <time>2019-11-13T14:20:57Z</time>
      </trkpt>
      <trkpt lat="43.47021" lon="6.41054">
        <ele>150.3</ele>
        <time>2019-11-13T14:21:08Z</time>
      </trkpt>
      <trkpt lat="43.4703" lon="6.41054">
        <ele>148.5</ele>
        <time>2019-11-13T14:21:18Z</time>
      </trkpt>
      <trkpt lat="43.4704" lon="6.41053">
        <ele>147.3</ele>
        <time>2019-11-13T14:21:28Z</time>
      </trkpt>
      <trkpt lat="43.4705" lon="6.41053">
        <ele>146.4</ele>
        <time>2019-11-13T14:21:35Z</time>
      </trkpt>
      <trkpt lat="43.47059" lon="6.41052">
        <ele>145.3</ele>
        <time>2019-11-13T14:21:44Z</time>
      </trkpt>
      <trkpt lat="43.47068" lon="6.41053">
        <ele>143.9</ele>
        <time>2019-11-13T14:21:56Z</time>
      </trkpt>
      <trkpt lat="43.47078" lon="6.41052">
        <ele>142.9</ele>
        <time>2019-11-13T14:22:04Z</time>
      </trkpt>
      <trkpt lat="43.47087" lon="6.41051">
        <ele>141.7</ele>
        <time>2019-11-13T14:22:12Z</time>
      </trkpt>
      <trkpt lat="43.47097" lon="6.41051">
        <ele>140.7</ele>
        <time>2019-11-13T14:22:21Z</time>
      </trkpt>
      <trkpt lat="43.47107" lon="6.41052">
        <ele>139.1</ele>
        <time>2019-11-13T14:22:32Z</time>
      </trkpt>
      <trkpt lat="43.47117" lon="6.4105">
        <ele>137.7</ele>
        <time>2019-11-13T14:22:42Z</time>
      </trkpt>
      <trkpt lat="43.47126" lon="6.41049">
        <ele>136.3</ele>
        <time>2019-11-13T14:22:51Z</time>
      </trkpt>
      <trkpt lat="43.47135" lon="6.41043">
        <ele>134.9</ele>
        <time>2019-11-13T14:23:02Z</time>
      </trkpt>
      <trkpt lat="43.4714" lon="6.41033">
        <ele>133.8</ele>
        <time>2019-11-13T14:23:54Z</time>
      </trkpt>
      <trkpt lat="43.47149" lon="6.41038">
        <ele>133.4</ele>
        <time>2019-11-13T14:24:20Z</time>
      </trkpt>
      <trkpt lat="43.47158" lon="6.41041">
        <ele>132.4</ele>
        <time>2019-11-13T14:24:37Z</time>
      </trkpt>
      <trkpt lat="43.47167" lon="6.41041">
        <ele>131</ele>
        <time>2019-11-13T14:24:50Z</time>
      </trkpt>
      <trkpt lat="43.47177" lon="6.4104">
        <ele>129.8</ele>
        <time>2019-11-13T14:25:03Z</time>
      </trkpt>
      <trkpt lat="43.47186" lon="6.41037">
        <ele>129.4</ele>
        <time>2019-11-13T14:25:13Z</time>
      </trkpt>
      <trkpt lat="43.47196" lon="6.41036">
        <ele>128.8</ele>
        <time>2019-11-13T14:25:24Z</time>
      </trkpt>
      <trkpt lat="43.47205" lon="6.41032">
        <ele>128.4</ele>
        <time>2019-11-13T14:25:35Z</time>
      </trkpt>
      <trkpt lat="43.47215" lon="6.41033">
        <ele>127.9</ele>
        <time>2019-11-13T14:25:46Z</time>
      </trkpt>
      <trkpt lat="43.47224" lon="6.41037">
        <ele>126.6</ele>
        <time>2019-11-13T14:25:56Z</time>
      </trkpt>
      <trkpt lat="43.47233" lon="6.41043">
        <ele>125</ele>
        <time>2019-11-13T14:26:06Z</time>
      </trkpt>
      <trkpt lat="43.4724" lon="6.4105">
        <ele>123.6</ele>
        <time>2019-11-13T14:26:15Z</time>
      </trkpt>
      <trkpt lat="43.47247" lon="6.41059">
        <ele>122.1</ele>
        <time>2019-11-13T14:26:24Z</time>
      </trkpt>
      <trkpt lat="43.47251" lon="6.41071">
        <ele>120</ele>
        <time>2019-11-13T14:26:34Z</time>
      </trkpt>
      <trkpt lat="43.47248" lon="6.41084">
        <ele>118.1</ele>
        <time>2019-11-13T14:26:45Z</time>
      </trkpt>
      <trkpt lat="43.47244" lon="6.41095">
        <ele>116.6</ele>
        <time>2019-11-13T14:26:55Z</time>
      </trkpt>
      <trkpt lat="43.47239" lon="6.41107">
        <ele>114.8</ele>
        <time>2019-11-13T14:27:05Z</time>
      </trkpt>
      <trkpt lat="43.47235" lon="6.41118">
        <ele>113.2</ele>
        <time>2019-11-13T14:27:14Z</time>
      </trkpt>
      <trkpt lat="43.47231" lon="6.4113">
        <ele>111.2</ele>
        <time>2019-11-13T14:27:23Z</time>
      </trkpt>
      <trkpt lat="43.4723" lon="6.41143">
        <ele>109.2</ele>
        <time>2019-11-13T14:27:32Z</time>
      </trkpt>
      <trkpt lat="43.47229" lon="6.41156">
        <ele>107.2</ele>
        <time>2019-11-13T14:27:41Z</time>
      </trkpt>
      <trkpt lat="43.47226" lon="6.41169">
        <ele>105.8</ele>
        <time>2019-11-13T14:27:49Z</time>
      </trkpt>
      <trkpt lat="43.47221" lon="6.41181">
        <ele>104.7</ele>
        <time>2019-11-13T14:27:57Z</time>
      </trkpt>
      <trkpt lat="43.47218" lon="6.41193">
        <ele>104</ele>
        <time>2019-11-13T14:28:04Z</time>
      </trkpt>
      <trkpt lat="43.47214" lon="6.41206">
        <ele>103.4</ele>
        <time>2019-11-13T14:28:12Z</time>
      </trkpt>
      <trkpt lat="43.47214" lon="6.41219">
        <ele>102.5</ele>
        <time>2019-11-13T14:28:22Z</time>
      </trkpt>
      <trkpt lat="43.47214" lon="6.41232">
        <ele>101.6</ele>
        <time>2019-11-13T14:28:31Z</time>
      </trkpt>
      <trkpt lat="43.47216" lon="6.41245">
        <ele>100.2</ele>
        <time>2019-11-13T14:28:50Z</time>
      </trkpt>
      <trkpt lat="43.47218" lon="6.41257">
        <ele>99.7</ele>
        <time>2019-11-13T14:29:08Z</time>
      </trkpt>
      <trkpt lat="43.47219" lon="6.4127">
        <ele>99.9</ele>
        <time>2019-11-13T14:29:18Z</time>
      </trkpt>
      <trkpt lat="43.4722" lon="6.41282">
        <ele>100.6</ele>
        <time>2019-11-13T14:29:28Z</time>
      </trkpt>
      <trkpt lat="43.47224" lon="6.41294">
        <ele>101.4</ele>
        <time>2019-11-13T14:29:41Z</time>
      </trkpt>
      <trkpt lat="43.47226" lon="6.41306">
        <ele>101.9</ele>
        <time>2019-11-13T14:29:51Z</time>
      </trkpt>
      <trkpt lat="43.47229" lon="6.4132">
        <ele>102.1</ele>
        <time>2019-11-13T14:30:00Z</time>
      </trkpt>
      <trkpt lat="43.47232" lon="6.41332">
        <ele>102.4</ele>
        <time>2019-11-13T14:30:08Z</time>
      </trkpt>
      <trkpt lat="43.47236" lon="6.41344">
        <ele>102.5</ele>
        <time>2019-11-13T14:30:16Z</time>
      </trkpt>
      <trkpt lat="43.47242" lon="6.41353">
        <ele>102.8</ele>
        <time>2019-11-13T14:30:26Z</time>
      </trkpt>
      <trkpt lat="43.47249" lon="6.41362">
        <ele>103.2</ele>
        <time>2019-11-13T14:30:35Z</time>
      </trkpt>
      <trkpt lat="43.47257" lon="6.41368">
        <ele>103.5</ele>
        <time>2019-11-13T14:30:45Z</time>
      </trkpt>
      <trkpt lat="43.47266" lon="6.41374">
        <ele>103.7</ele>
        <time>2019-11-13T14:30:55Z</time>
      </trkpt>
      <trkpt lat="43.47275" lon="6.4138">
        <ele>104.4</ele>
        <time>2019-11-13T14:31:06Z</time>
      </trkpt>
      <trkpt lat="43.47283" lon="6.41384">
        <ele>104.9</ele>
        <time>2019-11-13T14:31:17Z</time>
      </trkpt>
      <trkpt lat="43.47292" lon="6.4139">
        <ele>105.7</ele>
        <time>2019-11-13T14:31:26Z</time>
      </trkpt>
      <trkpt lat="43.473" lon="6.41397">
        <ele>106.3</ele>
        <time>2019-11-13T14:31:36Z</time>
      </trkpt>
      <trkpt lat="43.47309" lon="6.41403">
        <ele>106.4</ele>
        <time>2019-11-13T14:31:46Z</time>
      </trkpt>
      <trkpt lat="43.47317" lon="6.41411">
        <ele>106.4</ele>
        <time>2019-11-13T14:31:56Z</time>
      </trkpt>
      <trkpt lat="43.47325" lon="6.41418">
        <ele>106.5</ele>
        <time>2019-11-13T14:32:06Z</time>
      </trkpt>
      <trkpt lat="43.47332" lon="6.41427">
        <ele>106.6</ele>
        <time>2019-11-13T14:32:14Z</time>
      </trkpt>
      <trkpt lat="43.47339" lon="6.41435">
        <ele>106.6</ele>
        <time>2019-11-13T14:32:23Z</time>
      </trkpt>
      <trkpt lat="43.47347" lon="6.41444">
        <ele>106.7</ele>
        <time>2019-11-13T14:32:32Z</time>
      </trkpt>
      <trkpt lat="43.47354" lon="6.41452">
        <ele>107</ele>
        <time>2019-11-13T14:32:41Z</time>
      </trkpt>
      <trkpt lat="43.47361" lon="6.41462">
        <ele>107.2</ele>
        <time>2019-11-13T14:32:51Z</time>
      </trkpt>
      <trkpt lat="43.47367" lon="6.41453">
        <ele>108.2</ele>
        <time>2019-11-13T14:33:12Z</time>
      </trkpt>
      <trkpt lat="43.47362" lon="6.41442">
        <ele>108.8</ele>
        <time>2019-11-13T14:33:23Z</time>
      </trkpt>
      <trkpt lat="43.47356" lon="6.41433">
        <ele>109.3</ele>
        <time>2019-11-13T14:33:34Z</time>
      </trkpt>
      <trkpt lat="43.4735" lon="6.41423">
        <ele>110</ele>
        <time>2019-11-13T14:33:44Z</time>
      </trkpt>
      <trkpt lat="43.47344" lon="6.41413">
        <ele>111</ele>
        <time>2019-11-13T14:33:54Z</time>
      </trkpt>
      <trkpt lat="43.47338" lon="6.41402">
        <ele>111.8</ele>
        <time>2019-11-13T14:34:04Z</time>
      </trkpt>
      <trkpt lat="43.47333" lon="6.4139">
        <ele>112.6</ele>
        <time>2019-11-13T14:34:14Z</time>
      </trkpt>
      <trkpt lat="43.47331" lon="6.41377">
        <ele>113.1</ele>
        <time>2019-11-13T14:34:24Z</time>
      </trkpt>
      <trkpt lat="43.47329" lon="6.41364">
        <ele>113.9</ele>
        <time>2019-11-13T14:34:34Z</time>
      </trkpt>
      <trkpt lat="43.47329" lon="6.41351">
        <ele>114.8</ele>
        <time>2019-11-13T14:34:44Z</time>
      </trkpt>
      <trkpt lat="43.4733" lon="6.41338">
        <ele>116</ele>
        <time>2019-11-13T14:34:54Z</time>
      </trkpt>
      <trkpt lat="43.47332" lon="6.41325">
        <ele>116.8</ele>
        <time>2019-11-13T14:35:04Z</time>
      </trkpt>
      <trkpt lat="43.47336" lon="6.41312">
        <ele>118.1</ele>
        <time>2019-11-13T14:35:15Z</time>
      </trkpt>
      <trkpt lat="43.47339" lon="6.41299">
        <ele>119</ele>
        <time>2019-11-13T14:35:25Z</time>
      </trkpt>
      <trkpt lat="43.47343" lon="6.41287">
        <ele>119.9</ele>
        <time>2019-11-13T14:35:34Z</time>
      </trkpt>
      <trkpt lat="43.47348" lon="6.41277">
        <ele>120.9</ele>
        <time>2019-11-13T14:35:44Z</time>
      </trkpt>
      <trkpt lat="43.47355" lon="6.41268">
        <ele>121.7</ele>
        <time>2019-11-13T14:35:53Z</time>
      </trkpt>
      <trkpt lat="43.47363" lon="6.41261">
        <ele>122.3</ele>
        <time>2019-11-13T14:36:03Z</time>
      </trkpt>
      <trkpt lat="43.4737" lon="6.41251">
        <ele>122.7</ele>
        <time>2019-11-13T14:36:13Z</time>
      </trkpt>
      <trkpt lat="43.47378" lon="6.41243">
        <ele>123.2</ele>
        <time>2019-11-13T14:36:22Z</time>
      </trkpt>
      <trkpt lat="43.47386" lon="6.41235">
        <ele>123.5</ele>
        <time>2019-11-13T14:36:32Z</time>
      </trkpt>
      <trkpt lat="43.47393" lon="6.41228">
        <ele>123.4</ele>
        <time>2019-11-13T14:36:42Z</time>
      </trkpt>
      <trkpt lat="43.47402" lon="6.41222">
        <ele>123.6</ele>
        <time>2019-11-13T14:36:52Z</time>
      </trkpt>
      <trkpt lat="43.4741" lon="6.41215">
        <ele>123.8</ele>
        <time>2019-11-13T14:37:01Z</time>
      </trkpt>
      <trkpt lat="43.47419" lon="6.41209">
        <ele>124.5</ele>
        <time>2019-11-13T14:37:10Z</time>
      </trkpt>
      <trkpt lat="43.47429" lon="6.41203">
        <ele>125.1</ele>
        <time>2019-11-13T14:37:18Z</time>
      </trkpt>
      <trkpt lat="43.47438" lon="6.41199">
        <ele>125.5</ele>
        <time>2019-11-13T14:37:26Z</time>
      </trkpt>
      <trkpt lat="43.47448" lon="6.41198">
        <ele>126.1</ele>
        <time>2019-11-13T14:37:35Z</time>
      </trkpt>
      <trkpt lat="43.47457" lon="6.41197">
        <ele>126.3</ele>
        <time>2019-11-13T14:37:43Z</time>
      </trkpt>
      <trkpt lat="43.47467" lon="6.41197">
        <ele>127</ele>
        <time>2019-11-13T14:37:53Z</time>
      </trkpt>
      <trkpt lat="43.47476" lon="6.41199">
        <ele>127.8</ele>
        <time>2019-11-13T14:38:03Z</time>
      </trkpt>
      <trkpt lat="43.47485" lon="6.41201">
        <ele>128.1</ele>
        <time>2019-11-13T14:38:13Z</time>
      </trkpt>
      <trkpt lat="43.47494" lon="6.41203">
        <ele>128.5</ele>
        <time>2019-11-13T14:38:24Z</time>
      </trkpt>
      <trkpt lat="43.47504" lon="6.41203">
        <ele>129.1</ele>
        <time>2019-11-13T14:38:34Z</time>
      </trkpt>
      <trkpt lat="43.47513" lon="6.41203">
        <ele>130</ele>
        <time>2019-11-13T14:38:44Z</time>
      </trkpt>
      <trkpt lat="43.47523" lon="6.41203">
        <ele>130.7</ele>
        <time>2019-11-13T14:38:54Z</time>
      </trkpt>
      <trkpt lat="43.47533" lon="6.41204">
        <ele>131</ele>
        <time>2019-11-13T14:39:04Z</time>
      </trkpt>
      <trkpt lat="43.47542" lon="6.41205">
        <ele>131.5</ele>
        <time>2019-11-13T14:39:13Z</time>
      </trkpt>
      <trkpt lat="43.47552" lon="6.41207">
        <ele>131.8</ele>
        <time>2019-11-13T14:39:22Z</time>
      </trkpt>
      <trkpt lat="43.47561" lon="6.41211">
        <ele>132.2</ele>
        <time>2019-11-13T14:39:31Z</time>
      </trkpt>
      <trkpt lat="43.4757" lon="6.41216">
        <ele>132.8</ele>
        <time>2019-11-13T14:39:41Z</time>
      </trkpt>
      <trkpt lat="43.47579" lon="6.41224">
        <ele>133.3</ele>
        <time>2019-11-13T14:39:52Z</time>
      </trkpt>
      <trkpt lat="43.47586" lon="6.41233">
        <ele>134.1</ele>
        <time>2019-11-13T14:40:03Z</time>
      </trkpt>
      <trkpt lat="43.47592" lon="6.41241">
        <ele>135.2</ele>
        <time>2019-11-13T14:40:14Z</time>
      </trkpt>
      <trkpt lat="43.47599" lon="6.4125">
        <ele>135.9</ele>
        <time>2019-11-13T14:40:24Z</time>
      </trkpt>
      <trkpt lat="43.47606" lon="6.41259">
        <ele>136.6</ele>
        <time>2019-11-13T14:40:34Z</time>
      </trkpt>
      <trkpt lat="43.47612" lon="6.41269">
        <ele>137.1</ele>
        <time>2019-11-13T14:40:45Z</time>
      </trkpt>
      <trkpt lat="43.47617" lon="6.41281">
        <ele>137.6</ele>
        <time>2019-11-13T14:40:55Z</time>
      </trkpt>
      <trkpt lat="43.4762" lon="6.41294">
        <ele>138.1</ele>
        <time>2019-11-13T14:41:05Z</time>
      </trkpt>
      <trkpt lat="43.47623" lon="6.41306">
        <ele>138.2</ele>
        <time>2019-11-13T14:41:14Z</time>
      </trkpt>
      <trkpt lat="43.47626" lon="6.41318">
        <ele>138.3</ele>
        <time>2019-11-13T14:41:24Z</time>
      </trkpt>
      <trkpt lat="43.47628" lon="6.41332">
        <ele>138.6</ele>
        <time>2019-11-13T14:41:34Z</time>
      </trkpt>
      <trkpt lat="43.47629" lon="6.41345">
        <ele>138.4</ele>
        <time>2019-11-13T14:41:44Z</time>
      </trkpt>
      <trkpt lat="43.4763" lon="6.41357">
        <ele>138.3</ele>
        <time>2019-11-13T14:41:53Z</time>
      </trkpt>
      <trkpt lat="43.4763" lon="6.4137">
        <ele>138.2</ele>
        <time>2019-11-13T14:42:01Z</time>
      </trkpt>
      <trkpt lat="43.47629" lon="6.41384">
        <ele>138.1</ele>
        <time>2019-11-13T14:42:10Z</time>
      </trkpt>
      <trkpt lat="43.47629" lon="6.41397">
        <ele>138.1</ele>
        <time>2019-11-13T14:42:19Z</time>
      </trkpt>
      <trkpt lat="43.47628" lon="6.4141">
        <ele>138.3</ele>
        <time>2019-11-13T14:42:28Z</time>
      </trkpt>
      <trkpt lat="43.47626" lon="6.41423">
        <ele>138.6</ele>
        <time>2019-11-13T14:42:37Z</time>
      </trkpt>
      <trkpt lat="43.47624" lon="6.41435">
        <ele>138.9</ele>
        <time>2019-11-13T14:42:46Z</time>
      </trkpt>
      <trkpt lat="43.47621" lon="6.41448">
        <ele>139.4</ele>
        <time>2019-11-13T14:42:56Z</time>
      </trkpt>
      <trkpt lat="43.47619" lon="6.41462">
        <ele>139.8</ele>
        <time>2019-11-13T14:43:06Z</time>
      </trkpt>
      <trkpt lat="43.47617" lon="6.41475">
        <ele>140.3</ele>
        <time>2019-11-13T14:43:16Z</time>
      </trkpt>
      <trkpt lat="43.47616" lon="6.41488">
        <ele>140.9</ele>
        <time>2019-11-13T14:43:26Z</time>
      </trkpt>
      <trkpt lat="43.47615" lon="6.41501">
        <ele>141.7</ele>
        <time>2019-11-13T14:43:40Z</time>
      </trkpt>
      <trkpt lat="43.47614" lon="6.41514">
        <ele>142.6</ele>
        <time>2019-11-13T14:44:31Z</time>
      </trkpt>
      <trkpt lat="43.47623" lon="6.41519">
        <ele>141.7</ele>
        <time>2019-11-13T14:51:52Z</time>
      </trkpt>
      <trkpt lat="43.47631" lon="6.41524">
        <ele>141.6</ele>
        <time>2019-11-13T14:52:04Z</time>
      </trkpt>
      <trkpt lat="43.47641" lon="6.41527">
        <ele>141.6</ele>
        <time>2019-11-13T14:52:14Z</time>
      </trkpt>
      <trkpt lat="43.4765" lon="6.41529">
        <ele>141.9</ele>
        <time>2019-11-13T14:52:23Z</time>
      </trkpt>
      <trkpt lat="43.4766" lon="6.41529">
        <ele>142.1</ele>
        <time>2019-11-13T14:52:32Z</time>
      </trkpt>
      <trkpt lat="43.47669" lon="6.41531">
        <ele>142.3</ele>
        <time>2019-11-13T14:52:41Z</time>
      </trkpt>
      <trkpt lat="43.47679" lon="6.41534">
        <ele>142.5</ele>
        <time>2019-11-13T14:52:50Z</time>
      </trkpt>
      <trkpt lat="43.47688" lon="6.41536">
        <ele>142.7</ele>
        <time>2019-11-13T14:53:00Z</time>
      </trkpt>
      <trkpt lat="43.47697" lon="6.41539">
        <ele>143</ele>
        <time>2019-11-13T14:53:10Z</time>
      </trkpt>
      <trkpt lat="43.47707" lon="6.41541">
        <ele>143.2</ele>
        <time>2019-11-13T14:53:22Z</time>
      </trkpt>
      <trkpt lat="43.47716" lon="6.41545">
        <ele>143.3</ele>
        <time>2019-11-13T14:53:32Z</time>
      </trkpt>
      <trkpt lat="43.47725" lon="6.41549">
        <ele>143.4</ele>
        <time>2019-11-13T14:53:42Z</time>
      </trkpt>
      <trkpt lat="43.47734" lon="6.41552">
        <ele>143.6</ele>
        <time>2019-11-13T14:53:53Z</time>
      </trkpt>
      <trkpt lat="43.47743" lon="6.41555">
        <ele>143.9</ele>
        <time>2019-11-13T14:54:03Z</time>
      </trkpt>
      <trkpt lat="43.47753" lon="6.41555">
        <ele>144.2</ele>
        <time>2019-11-13T14:54:13Z</time>
      </trkpt>
      <trkpt lat="43.47762" lon="6.41553">
        <ele>144.5</ele>
        <time>2019-11-13T14:54:22Z</time>
      </trkpt>
      <trkpt lat="43.47771" lon="6.41551">
        <ele>144.9</ele>
        <time>2019-11-13T14:54:31Z</time>
      </trkpt>
      <trkpt lat="43.4778" lon="6.41547">
        <ele>145.3</ele>
        <time>2019-11-13T14:54:40Z</time>
      </trkpt>
      <trkpt lat="43.47789" lon="6.41545">
        <ele>145.6</ele>
        <time>2019-11-13T14:54:49Z</time>
      </trkpt>
      <trkpt lat="43.47799" lon="6.41544">
        <ele>145.9</ele>
        <time>2019-11-13T14:54:59Z</time>
      </trkpt>
      <trkpt lat="43.47808" lon="6.4154">
        <ele>146.1</ele>
        <time>2019-11-13T14:55:07Z</time>
      </trkpt>
      <trkpt lat="43.47817" lon="6.41537">
        <ele>146.3</ele>
        <time>2019-11-13T14:55:15Z</time>
      </trkpt>
      <trkpt lat="43.47826" lon="6.41535">
        <ele>146.4</ele>
        <time>2019-11-13T14:55:23Z</time>
      </trkpt>
      <trkpt lat="43.47836" lon="6.41532">
        <ele>146.5</ele>
        <time>2019-11-13T14:55:32Z</time>
      </trkpt>
      <trkpt lat="43.47845" lon="6.41529">
        <ele>146.6</ele>
        <time>2019-11-13T14:55:40Z</time>
      </trkpt>
      <trkpt lat="43.47854" lon="6.41528">
        <ele>146.7</ele>
        <time>2019-11-13T14:55:48Z</time>
      </trkpt>
      <trkpt lat="43.47863" lon="6.41527">
        <ele>146.8</ele>
        <time>2019-11-13T14:55:55Z</time>
      </trkpt>
      <trkpt lat="43.47873" lon="6.41528">
        <ele>147.1</ele>
        <time>2019-11-13T14:56:05Z</time>
      </trkpt>
      <trkpt lat="43.47882" lon="6.41528">
        <ele>147.3</ele>
        <time>2019-11-13T14:56:14Z</time>
      </trkpt>
      <trkpt lat="43.47891" lon="6.41529">
        <ele>147.7</ele>
        <time>2019-11-13T14:56:23Z</time>
      </trkpt>
      <trkpt lat="43.479" lon="6.41534">
        <ele>148.2</ele>
        <time>2019-11-13T14:56:35Z</time>
      </trkpt>
      <trkpt lat="43.47905" lon="6.41545">
        <ele>148.5</ele>
        <time>2019-11-13T14:56:50Z</time>
      </trkpt>
      <trkpt lat="43.47905" lon="6.41558">
        <ele>149.6</ele>
        <time>2019-11-13T14:57:05Z</time>
      </trkpt>
      <trkpt lat="43.47909" lon="6.4157">
        <ele>150.1</ele>
        <time>2019-11-13T14:57:15Z</time>
      </trkpt>
      <trkpt lat="43.47913" lon="6.41583">
        <ele>150.4</ele>
        <time>2019-11-13T14:57:23Z</time>
      </trkpt>
      <trkpt lat="43.47914" lon="6.41595">
        <ele>150.5</ele>
        <time>2019-11-13T14:57:33Z</time>
      </trkpt>
      <trkpt lat="43.47918" lon="6.41607">
        <ele>150.6</ele>
        <time>2019-11-13T14:57:41Z</time>
      </trkpt>
      <trkpt lat="43.47919" lon="6.4162">
        <ele>150.6</ele>
        <time>2019-11-13T14:57:51Z</time>
      </trkpt>
      <trkpt lat="43.47922" lon="6.41632">
        <ele>150.6</ele>
        <time>2019-11-13T14:57:59Z</time>
      </trkpt>
      <trkpt lat="43.47926" lon="6.41643">
        <ele>150.8</ele>
        <time>2019-11-13T14:58:06Z</time>
      </trkpt>
      <trkpt lat="43.47927" lon="6.41656">
        <ele>151.1</ele>
        <time>2019-11-13T14:58:15Z</time>
      </trkpt>
      <trkpt lat="43.4793" lon="6.41668">
        <ele>151.3</ele>
        <time>2019-11-13T14:58:22Z</time>
      </trkpt>
      <trkpt lat="43.47932" lon="6.41681">
        <ele>151.6</ele>
        <time>2019-11-13T14:58:30Z</time>
      </trkpt>
      <trkpt lat="43.47932" lon="6.41694">
        <ele>151.9</ele>
        <time>2019-11-13T14:58:38Z</time>
      </trkpt>
      <trkpt lat="43.47934" lon="6.41707">
        <ele>152.3</ele>
        <time>2019-11-13T14:58:47Z</time>
      </trkpt>
      <trkpt lat="43.47934" lon="6.4172">
        <ele>153</ele>
        <time>2019-11-13T14:58:56Z</time>
      </trkpt>
      <trkpt lat="43.47933" lon="6.41733">
        <ele>153.6</ele>
        <time>2019-11-13T14:59:05Z</time>
      </trkpt>
      <trkpt lat="43.47934" lon="6.41746">
        <ele>153.9</ele>
        <time>2019-11-13T14:59:14Z</time>
      </trkpt>
      <trkpt lat="43.47935" lon="6.41759">
        <ele>154.4</ele>
        <time>2019-11-13T14:59:23Z</time>
      </trkpt>
      <trkpt lat="43.47935" lon="6.41772">
        <ele>155</ele>
        <time>2019-11-13T14:59:32Z</time>
      </trkpt>
      <trkpt lat="43.47934" lon="6.41785">
        <ele>155.2</ele>
        <time>2019-11-13T14:59:41Z</time>
      </trkpt>
      <trkpt lat="43.47935" lon="6.41798">
        <ele>155.4</ele>
        <time>2019-11-13T14:59:50Z</time>
      </trkpt>
      <trkpt lat="43.47936" lon="6.4181">
        <ele>155.5</ele>
        <time>2019-11-13T14:59:59Z</time>
      </trkpt>
      <trkpt lat="43.4794" lon="6.41822">
        <ele>155.6</ele>
        <time>2019-11-13T15:00:08Z</time>
      </trkpt>
      <trkpt lat="43.47947" lon="6.41831">
        <ele>155.9</ele>
        <time>2019-11-13T15:00:17Z</time>
      </trkpt>
      <trkpt lat="43.47956" lon="6.41832">
        <ele>156.2</ele>
        <time>2019-11-13T15:00:25Z</time>
      </trkpt>
      <trkpt lat="43.47966" lon="6.41828">
        <ele>156.5</ele>
        <time>2019-11-13T15:00:35Z</time>
      </trkpt>
      <trkpt lat="43.47975" lon="6.41823">
        <ele>156.9</ele>
        <time>2019-11-13T15:00:44Z</time>
      </trkpt>
      <trkpt lat="43.47984" lon="6.41819">
        <ele>157.3</ele>
        <time>2019-11-13T15:00:53Z</time>
      </trkpt>
      <trkpt lat="43.47993" lon="6.41814">
        <ele>157.5</ele>
        <time>2019-11-13T15:01:02Z</time>
      </trkpt>
      <trkpt lat="43.48001" lon="6.41807">
        <ele>157.7</ele>
        <time>2019-11-13T15:01:12Z</time>
      </trkpt>
      <trkpt lat="43.48011" lon="6.41802">
        <ele>157.7</ele>
        <time>2019-11-13T15:01:21Z</time>
      </trkpt>
      <trkpt lat="43.48019" lon="6.41798">
        <ele>157.9</ele>
        <time>2019-11-13T15:01:29Z</time>
      </trkpt>
      <trkpt lat="43.48028" lon="6.41794">
        <ele>157.9</ele>
        <time>2019-11-13T15:01:37Z</time>
      </trkpt>
      <trkpt lat="43.48037" lon="6.4179">
        <ele>157.9</ele>
        <time>2019-11-13T15:01:45Z</time>
      </trkpt>
      <trkpt lat="43.48046" lon="6.41785">
        <ele>158.1</ele>
        <time>2019-11-13T15:01:53Z</time>
      </trkpt>
      <trkpt lat="43.48055" lon="6.41779">
        <ele>158.2</ele>
        <time>2019-11-13T15:02:01Z</time>
      </trkpt>
      <trkpt lat="43.48064" lon="6.41775">
        <ele>158.5</ele>
        <time>2019-11-13T15:02:09Z</time>
      </trkpt>
      <trkpt lat="43.48073" lon="6.41772">
        <ele>159.2</ele>
        <time>2019-11-13T15:02:17Z</time>
      </trkpt>
      <trkpt lat="43.48082" lon="6.41766">
        <ele>159.4</ele>
        <time>2019-11-13T15:02:26Z</time>
      </trkpt>
      <trkpt lat="43.48091" lon="6.41758">
        <ele>159.6</ele>
        <time>2019-11-13T15:02:35Z</time>
      </trkpt>
      <trkpt lat="43.48098" lon="6.4175">
        <ele>160.1</ele>
        <time>2019-11-13T15:02:44Z</time>
      </trkpt>
      <trkpt lat="43.48105" lon="6.41741">
        <ele>160.2</ele>
        <time>2019-11-13T15:02:54Z</time>
      </trkpt>
      <trkpt lat="43.48111" lon="6.41732">
        <ele>160.4</ele>
        <time>2019-11-13T15:03:03Z</time>
      </trkpt>
      <trkpt lat="43.48118" lon="6.41723">
        <ele>160.9</ele>
        <time>2019-11-13T15:03:12Z</time>
      </trkpt>
      <trkpt lat="43.48126" lon="6.41715">
        <ele>161</ele>
        <time>2019-11-13T15:03:21Z</time>
      </trkpt>
      <trkpt lat="43.48133" lon="6.41706">
        <ele>161.2</ele>
        <time>2019-11-13T15:03:32Z</time>
      </trkpt>
      <trkpt lat="43.48138" lon="6.41695">
        <ele>161.3</ele>
        <time>2019-11-13T15:03:41Z</time>
      </trkpt>
      <trkpt lat="43.48144" lon="6.41684">
        <ele>161.2</ele>
        <time>2019-11-13T15:03:49Z</time>
      </trkpt>
      <trkpt lat="43.4815" lon="6.41674">
        <ele>161.5</ele>
        <time>2019-11-13T15:03:57Z</time>
      </trkpt>
      <trkpt lat="43.48156" lon="6.41664">
        <ele>161.7</ele>
        <time>2019-11-13T15:04:07Z</time>
      </trkpt>
      <trkpt lat="43.48164" lon="6.41656">
        <ele>161.8</ele>
        <time>2019-11-13T15:04:17Z</time>
      </trkpt>
      <trkpt lat="43.4817" lon="6.41646">
        <ele>161.8</ele>
        <time>2019-11-13T15:04:26Z</time>
      </trkpt>
      <trkpt lat="43.48178" lon="6.41638">
        <ele>162</ele>
        <time>2019-11-13T15:04:33Z</time>
      </trkpt>
      <trkpt lat="43.48184" lon="6.41628">
        <ele>162.1</ele>
        <time>2019-11-13T15:04:41Z</time>
      </trkpt>
      <trkpt lat="43.48187" lon="6.41616">
        <ele>162.1</ele>
        <time>2019-11-13T15:04:50Z</time>
      </trkpt>
      <trkpt lat="43.48189" lon="6.41604">
        <ele>162.4</ele>
        <time>2019-11-13T15:05:00Z</time>
      </trkpt>
      <trkpt lat="43.48192" lon="6.41591">
        <ele>162.2</ele>
        <time>2019-11-13T15:05:10Z</time>
      </trkpt>
      <trkpt lat="43.48197" lon="6.41579">
        <ele>161.9</ele>
        <time>2019-11-13T15:05:19Z</time>
      </trkpt>
      <trkpt lat="43.48204" lon="6.41572">
        <ele>161.7</ele>
        <time>2019-11-13T15:05:25Z</time>
      </trkpt>
      <trkpt lat="43.48213" lon="6.41566">
        <ele>161.6</ele>
        <time>2019-11-13T15:05:32Z</time>
      </trkpt>
      <trkpt lat="43.48222" lon="6.41563">
        <ele>161.4</ele>
        <time>2019-11-13T15:05:40Z</time>
      </trkpt>
      <trkpt lat="43.48232" lon="6.41562">
        <ele>161.2</ele>
        <time>2019-11-13T15:05:48Z</time>
      </trkpt>
      <trkpt lat="43.48241" lon="6.41562">
        <ele>160.9</ele>
        <time>2019-11-13T15:05:57Z</time>
      </trkpt>
      <trkpt lat="43.48251" lon="6.41561">
        <ele>160.7</ele>
        <time>2019-11-13T15:06:06Z</time>
      </trkpt>
      <trkpt lat="43.48261" lon="6.4156">
        <ele>160.5</ele>
        <time>2019-11-13T15:06:15Z</time>
      </trkpt>
      <trkpt lat="43.48269" lon="6.41555">
        <ele>160.2</ele>
        <time>2019-11-13T15:07:25Z</time>
      </trkpt>
      <trkpt lat="43.48271" lon="6.41542">
        <ele>160.7</ele>
        <time>2019-11-13T15:08:56Z</time>
      </trkpt>
      <trkpt lat="43.48273" lon="6.41529">
        <ele>160.7</ele>
        <time>2019-11-13T15:09:07Z</time>
      </trkpt>
      <trkpt lat="43.48276" lon="6.41517">
        <ele>160.6</ele>
        <time>2019-11-13T15:09:28Z</time>
      </trkpt>
      <trkpt lat="43.48276" lon="6.41504">
        <ele>160.6</ele>
        <time>2019-11-13T15:10:05Z</time>
      </trkpt>
      <trkpt lat="43.48279" lon="6.41491">
        <ele>160.3</ele>
        <time>2019-11-13T15:10:15Z</time>
      </trkpt>
      <trkpt lat="43.4828" lon="6.41478">
        <ele>160.1</ele>
        <time>2019-11-13T15:10:25Z</time>
      </trkpt>
      <trkpt lat="43.4828" lon="6.41465">
        <ele>160</ele>
        <time>2019-11-13T15:10:35Z</time>
      </trkpt>
      <trkpt lat="43.48281" lon="6.4145">
        <ele>159.9</ele>
        <time>2019-11-13T15:10:43Z</time>
      </trkpt>
      <trkpt lat="43.4828" lon="6.41437">
        <ele>159.8</ele>
        <time>2019-11-13T15:10:51Z</time>
      </trkpt>
      <trkpt lat="43.48279" lon="6.41424">
        <ele>159.5</ele>
        <time>2019-11-13T15:11:01Z</time>
      </trkpt>
      <trkpt lat="43.48276" lon="6.41411">
        <ele>159.3</ele>
        <time>2019-11-13T15:11:09Z</time>
      </trkpt>
      <trkpt lat="43.48274" lon="6.41397">
        <ele>159.1</ele>
        <time>2019-11-13T15:11:16Z</time>
      </trkpt>
      <trkpt lat="43.48268" lon="6.41386">
        <ele>158.3</ele>
        <time>2019-11-13T15:11:24Z</time>
      </trkpt>
      <trkpt lat="43.48262" lon="6.41376">
        <ele>157.7</ele>
        <time>2019-11-13T15:11:32Z</time>
      </trkpt>
      <trkpt lat="43.48257" lon="6.41366">
        <ele>157</ele>
        <time>2019-11-13T15:11:40Z</time>
      </trkpt>
      <trkpt lat="43.48252" lon="6.41355">
        <ele>156.1</ele>
        <time>2019-11-13T15:11:50Z</time>
      </trkpt>
      <trkpt lat="43.48249" lon="6.41343">
        <ele>155.4</ele>
        <time>2019-11-13T15:11:59Z</time>
      </trkpt>
      <trkpt lat="43.48247" lon="6.4133">
        <ele>154.3</ele>
        <time>2019-11-13T15:12:08Z</time>
      </trkpt>
      <trkpt lat="43.48246" lon="6.41317">
        <ele>153.4</ele>
        <time>2019-11-13T15:12:16Z</time>
      </trkpt>
      <trkpt lat="43.48244" lon="6.41305">
        <ele>152.7</ele>
        <time>2019-11-13T15:12:26Z</time>
      </trkpt>
      <trkpt lat="43.48243" lon="6.41292">
        <ele>151.7</ele>
        <time>2019-11-13T15:12:36Z</time>
      </trkpt>
      <trkpt lat="43.48244" lon="6.41279">
        <ele>150.8</ele>
        <time>2019-11-13T15:12:44Z</time>
      </trkpt>
      <trkpt lat="43.48242" lon="6.41266">
        <ele>150.2</ele>
        <time>2019-11-13T15:12:51Z</time>
      </trkpt>
      <trkpt lat="43.48241" lon="6.41253">
        <ele>149.6</ele>
        <time>2019-11-13T15:12:59Z</time>
      </trkpt>
      <trkpt lat="43.4824" lon="6.41241">
        <ele>149</ele>
        <time>2019-11-13T15:13:07Z</time>
      </trkpt>
      <trkpt lat="43.48241" lon="6.41228">
        <ele>148.5</ele>
        <time>2019-11-13T15:13:18Z</time>
      </trkpt>
      <trkpt lat="43.48241" lon="6.41215">
        <ele>147.9</ele>
        <time>2019-11-13T15:13:43Z</time>
      </trkpt>
      <trkpt lat="43.48242" lon="6.41201">
        <ele>147.2</ele>
        <time>2019-11-13T15:13:56Z</time>
      </trkpt>
      <trkpt lat="43.48244" lon="6.41188">
        <ele>146.6</ele>
        <time>2019-11-13T15:14:05Z</time>
      </trkpt>
      <trkpt lat="43.48247" lon="6.41175">
        <ele>145.8</ele>
        <time>2019-11-13T15:14:15Z</time>
      </trkpt>
      <trkpt lat="43.48247" lon="6.41162">
        <ele>144.6</ele>
        <time>2019-11-13T15:14:27Z</time>
      </trkpt>
      <trkpt lat="43.4825" lon="6.41149">
        <ele>143.7</ele>
        <time>2019-11-13T15:14:36Z</time>
      </trkpt>
      <trkpt lat="43.48254" lon="6.41136">
        <ele>142.8</ele>
        <time>2019-11-13T15:14:45Z</time>
      </trkpt>
      <trkpt lat="43.48258" lon="6.41124">
        <ele>141.5</ele>
        <time>2019-11-13T15:14:53Z</time>
      </trkpt>
      <trkpt lat="43.48263" lon="6.41113">
        <ele>140.6</ele>
        <time>2019-11-13T15:15:01Z</time>
      </trkpt>
      <trkpt lat="43.48269" lon="6.41104">
        <ele>139.4</ele>
        <time>2019-11-13T15:15:10Z</time>
      </trkpt>
      <trkpt lat="43.48274" lon="6.41094">
        <ele>138.6</ele>
        <time>2019-11-13T15:15:18Z</time>
      </trkpt>
      <trkpt lat="43.48279" lon="6.41083">
        <ele>137.6</ele>
        <time>2019-11-13T15:15:28Z</time>
      </trkpt>
      <trkpt lat="43.48283" lon="6.41072">
        <ele>136.3</ele>
        <time>2019-11-13T15:15:37Z</time>
      </trkpt>
      <trkpt lat="43.48288" lon="6.41061">
        <ele>135.3</ele>
        <time>2019-11-13T15:15:48Z</time>
      </trkpt>
      <trkpt lat="43.48294" lon="6.4105">
        <ele>134.3</ele>
        <time>2019-11-13T15:15:58Z</time>
      </trkpt>
      <trkpt lat="43.48301" lon="6.41041">
        <ele>133.5</ele>
        <time>2019-11-13T15:16:08Z</time>
      </trkpt>
      <trkpt lat="43.48308" lon="6.41033">
        <ele>132.8</ele>
        <time>2019-11-13T15:16:17Z</time>
      </trkpt>
      <trkpt lat="43.48316" lon="6.41025">
        <ele>131.7</ele>
        <time>2019-11-13T15:16:26Z</time>
      </trkpt>
      <trkpt lat="43.48323" lon="6.41017">
        <ele>130.9</ele>
        <time>2019-11-13T15:16:35Z</time>
      </trkpt>
      <trkpt lat="43.4833" lon="6.41006">
        <ele>130.5</ele>
        <time>2019-11-13T15:16:42Z</time>
      </trkpt>
      <trkpt lat="43.48336" lon="6.40995">
        <ele>130.3</ele>
        <time>2019-11-13T15:16:49Z</time>
      </trkpt>
      <trkpt lat="43.48341" lon="6.40983">
        <ele>129.9</ele>
        <time>2019-11-13T15:16:57Z</time>
      </trkpt>
      <trkpt lat="43.48345" lon="6.40971">
        <ele>129.3</ele>
        <time>2019-11-13T15:17:05Z</time>
      </trkpt>
      <trkpt lat="43.4835" lon="6.40959">
        <ele>128.8</ele>
        <time>2019-11-13T15:17:13Z</time>
      </trkpt>
      <trkpt lat="43.48353" lon="6.40947">
        <ele>128.4</ele>
        <time>2019-11-13T15:17:21Z</time>
      </trkpt>
      <trkpt lat="43.48358" lon="6.40936">
        <ele>128.3</ele>
        <time>2019-11-13T15:17:29Z</time>
      </trkpt>
      <trkpt lat="43.48365" lon="6.40927">
        <ele>128</ele>
        <time>2019-11-13T15:17:37Z</time>
      </trkpt>
      <trkpt lat="43.48372" lon="6.40919">
        <ele>126.9</ele>
        <time>2019-11-13T15:17:47Z</time>
      </trkpt>
      <trkpt lat="43.48381" lon="6.40912">
        <ele>125.9</ele>
        <time>2019-11-13T15:17:57Z</time>
      </trkpt>
      <trkpt lat="43.48387" lon="6.40902">
        <ele>125.6</ele>
        <time>2019-11-13T15:18:04Z</time>
      </trkpt>
      <trkpt lat="43.48394" lon="6.40894">
        <ele>125.6</ele>
        <time>2019-11-13T15:18:10Z</time>
      </trkpt>
      <trkpt lat="43.484" lon="6.40885">
        <ele>125.6</ele>
        <time>2019-11-13T15:18:16Z</time>
      </trkpt>
      <trkpt lat="43.48407" lon="6.40875">
        <ele>125.6</ele>
        <time>2019-11-13T15:18:24Z</time>
      </trkpt>
      <trkpt lat="43.48413" lon="6.40867">
        <ele>125.8</ele>
        <time>2019-11-13T15:18:32Z</time>
      </trkpt>
      <trkpt lat="43.48421" lon="6.40858">
        <ele>126.5</ele>
        <time>2019-11-13T15:18:41Z</time>
      </trkpt>
      <trkpt lat="43.48429" lon="6.40851">
        <ele>127.3</ele>
        <time>2019-11-13T15:18:49Z</time>
      </trkpt>
      <trkpt lat="43.48435" lon="6.40841">
        <ele>128.3</ele>
        <time>2019-11-13T15:18:58Z</time>
      </trkpt>
      <trkpt lat="43.4844" lon="6.40831">
        <ele>129.3</ele>
        <time>2019-11-13T15:19:07Z</time>
      </trkpt>
      <trkpt lat="43.48445" lon="6.40819">
        <ele>130.6</ele>
        <time>2019-11-13T15:19:17Z</time>
      </trkpt>
      <trkpt lat="43.48451" lon="6.40809">
        <ele>132.3</ele>
        <time>2019-11-13T15:19:29Z</time>
      </trkpt>
      <trkpt lat="43.48455" lon="6.40799">
        <ele>133.5</ele>
        <time>2019-11-13T15:19:38Z</time>
      </trkpt>
      <trkpt lat="43.4846" lon="6.40787">
        <ele>134.4</ele>
        <time>2019-11-13T15:19:47Z</time>
      </trkpt>
      <trkpt lat="43.48464" lon="6.40775">
        <ele>135.1</ele>
        <time>2019-11-13T15:19:56Z</time>
      </trkpt>
      <trkpt lat="43.48466" lon="6.40763">
        <ele>136.1</ele>
        <time>2019-11-13T15:20:06Z</time>
      </trkpt>
      <trkpt lat="43.48469" lon="6.40751">
        <ele>136.7</ele>
        <time>2019-11-13T15:20:17Z</time>
      </trkpt>
      <trkpt lat="43.48471" lon="6.40738">
        <ele>137.2</ele>
        <time>2019-11-13T15:20:26Z</time>
      </trkpt>
      <trkpt lat="43.48474" lon="6.40724">
        <ele>137.8</ele>
        <time>2019-11-13T15:20:36Z</time>
      </trkpt>
      <trkpt lat="43.48476" lon="6.40711">
        <ele>138.1</ele>
        <time>2019-11-13T15:20:43Z</time>
      </trkpt>
      <trkpt lat="43.48476" lon="6.40699">
        <ele>138.2</ele>
        <time>2019-11-13T15:20:51Z</time>
      </trkpt>
      <trkpt lat="43.48477" lon="6.40686">
        <ele>138.3</ele>
        <time>2019-11-13T15:20:58Z</time>
      </trkpt>
      <trkpt lat="43.48476" lon="6.40673">
        <ele>138.3</ele>
        <time>2019-11-13T15:21:05Z</time>
      </trkpt>
      <trkpt lat="43.48478" lon="6.40659">
        <ele>138.3</ele>
        <time>2019-11-13T15:21:12Z</time>
      </trkpt>
      <trkpt lat="43.48479" lon="6.40645">
        <ele>138.3</ele>
        <time>2019-11-13T15:21:20Z</time>
      </trkpt>
      <trkpt lat="43.48477" lon="6.40633">
        <ele>138.2</ele>
        <time>2019-11-13T15:21:28Z</time>
      </trkpt>
      <trkpt lat="43.48476" lon="6.4062">
        <ele>138.1</ele>
        <time>2019-11-13T15:21:38Z</time>
      </trkpt>
      <trkpt lat="43.48475" lon="6.40607">
        <ele>137.8</ele>
        <time>2019-11-13T15:21:48Z</time>
      </trkpt>
      <trkpt lat="43.48475" lon="6.40595">
        <ele>137.1</ele>
        <time>2019-11-13T15:21:57Z</time>
      </trkpt>
      <trkpt lat="43.48474" lon="6.40582">
        <ele>136.3</ele>
        <time>2019-11-13T15:22:07Z</time>
      </trkpt>
      <trkpt lat="43.48474" lon="6.4057">
        <ele>135.9</ele>
        <time>2019-11-13T15:22:14Z</time>
      </trkpt>
      <trkpt lat="43.48476" lon="6.40556">
        <ele>135.1</ele>
        <time>2019-11-13T15:22:22Z</time>
      </trkpt>
      <trkpt lat="43.48477" lon="6.40544">
        <ele>134.3</ele>
        <time>2019-11-13T15:22:33Z</time>
      </trkpt>
      <trkpt lat="43.48478" lon="6.4053">
        <ele>133.6</ele>
        <time>2019-11-13T15:22:44Z</time>
      </trkpt>
      <trkpt lat="43.48479" lon="6.40518">
        <ele>133</ele>
        <time>2019-11-13T15:22:52Z</time>
      </trkpt>
      <trkpt lat="43.4848" lon="6.40504">
        <ele>132.3</ele>
        <time>2019-11-13T15:23:00Z</time>
      </trkpt>
      <trkpt lat="43.48482" lon="6.40491">
        <ele>131.6</ele>
        <time>2019-11-13T15:23:07Z</time>
      </trkpt>
      <trkpt lat="43.48485" lon="6.40478">
        <ele>130.6</ele>
        <time>2019-11-13T15:23:17Z</time>
      </trkpt>
      <trkpt lat="43.48481" lon="6.40467">
        <ele>128.8</ele>
        <time>2019-11-13T15:23:40Z</time>
      </trkpt>
      <trkpt lat="43.48486" lon="6.40456">
        <ele>128.7</ele>
        <time>2019-11-13T15:24:20Z</time>
      </trkpt>
      <trkpt lat="43.48492" lon="6.40446">
        <ele>128.5</ele>
        <time>2019-11-13T15:24:31Z</time>
      </trkpt>
      <trkpt lat="43.48497" lon="6.40434">
        <ele>128.3</ele>
        <time>2019-11-13T15:24:43Z</time>
      </trkpt>
      <trkpt lat="43.48501" lon="6.40422">
        <ele>128.2</ele>
        <time>2019-11-13T15:24:53Z</time>
      </trkpt>
      <trkpt lat="43.48505" lon="6.4041">
        <ele>128.1</ele>
        <time>2019-11-13T15:25:02Z</time>
      </trkpt>
      <trkpt lat="43.48508" lon="6.40398">
        <ele>128.3</ele>
        <time>2019-11-13T15:25:11Z</time>
      </trkpt>
      <trkpt lat="43.48512" lon="6.40387">
        <ele>128.7</ele>
        <time>2019-11-13T15:25:21Z</time>
      </trkpt>
      <trkpt lat="43.48517" lon="6.40375">
        <ele>129.6</ele>
        <time>2019-11-13T15:25:32Z</time>
      </trkpt>
      <trkpt lat="43.48521" lon="6.40364">
        <ele>130</ele>
        <time>2019-11-13T15:25:42Z</time>
      </trkpt>
      <trkpt lat="43.48525" lon="6.40352">
        <ele>130.2</ele>
        <time>2019-11-13T15:25:51Z</time>
      </trkpt>
      <trkpt lat="43.48527" lon="6.4034">
        <ele>129.9</ele>
        <time>2019-11-13T15:26:01Z</time>
      </trkpt>
      <trkpt lat="43.48532" lon="6.40328">
        <ele>129.4</ele>
        <time>2019-11-13T15:26:13Z</time>
      </trkpt>
      <trkpt lat="43.48537" lon="6.40318">
        <ele>128.6</ele>
        <time>2019-11-13T15:26:41Z</time>
      </trkpt>
      <trkpt lat="43.48543" lon="6.40308">
        <ele>127.9</ele>
        <time>2019-11-13T15:27:01Z</time>
      </trkpt>
      <trkpt lat="43.48548" lon="6.40297">
        <ele>127.1</ele>
        <time>2019-11-13T15:27:10Z</time>
      </trkpt>
      <trkpt lat="43.48553" lon="6.40286">
        <ele>126.2</ele>
        <time>2019-11-13T15:27:21Z</time>
      </trkpt>
      <trkpt lat="43.48556" lon="6.40273">
        <ele>124.8</ele>
        <time>2019-11-13T15:27:30Z</time>
      </trkpt>
      <trkpt lat="43.48557" lon="6.4026">
        <ele>124</ele>
        <time>2019-11-13T15:27:37Z</time>
      </trkpt>
      <trkpt lat="43.48559" lon="6.40248">
        <ele>123.4</ele>
        <time>2019-11-13T15:27:43Z</time>
      </trkpt>
      <trkpt lat="43.48562" lon="6.40235">
        <ele>122.3</ele>
        <time>2019-11-13T15:27:52Z</time>
      </trkpt>
      <trkpt lat="43.48561" lon="6.40221">
        <ele>121.5</ele>
        <time>2019-11-13T15:28:00Z</time>
      </trkpt>
      <trkpt lat="43.48559" lon="6.40208">
        <ele>120.8</ele>
        <time>2019-11-13T15:28:08Z</time>
      </trkpt>
      <trkpt lat="43.4856" lon="6.40195">
        <ele>119.7</ele>
        <time>2019-11-13T15:28:17Z</time>
      </trkpt>
      <trkpt lat="43.48561" lon="6.40181">
        <ele>118.8</ele>
        <time>2019-11-13T15:28:25Z</time>
      </trkpt>
      <trkpt lat="43.48561" lon="6.40167">
        <ele>117.9</ele>
        <time>2019-11-13T15:28:34Z</time>
      </trkpt>
      <trkpt lat="43.4856" lon="6.40153">
        <ele>117.1</ele>
        <time>2019-11-13T15:28:41Z</time>
      </trkpt>
      <trkpt lat="43.48558" lon="6.4014">
        <ele>116.8</ele>
        <time>2019-11-13T15:28:48Z</time>
      </trkpt>
      <trkpt lat="43.48556" lon="6.40127">
        <ele>116.6</ele>
        <time>2019-11-13T15:28:56Z</time>
      </trkpt>
      <trkpt lat="43.48555" lon="6.40115">
        <ele>116.5</ele>
        <time>2019-11-13T15:29:03Z</time>
      </trkpt>
      <trkpt lat="43.48557" lon="6.40101">
        <ele>116.8</ele>
        <time>2019-11-13T15:29:12Z</time>
      </trkpt>
      <trkpt lat="43.4856" lon="6.40089">
        <ele>117.8</ele>
        <time>2019-11-13T15:29:21Z</time>
      </trkpt>
      <trkpt lat="43.48564" lon="6.40076">
        <ele>118.6</ele>
        <time>2019-11-13T15:29:30Z</time>
      </trkpt>
      <trkpt lat="43.48566" lon="6.40064">
        <ele>119.6</ele>
        <time>2019-11-13T15:29:39Z</time>
      </trkpt>
      <trkpt lat="43.48567" lon="6.40051">
        <ele>120.3</ele>
        <time>2019-11-13T15:29:47Z</time>
      </trkpt>
      <trkpt lat="43.48563" lon="6.4004">
        <ele>120.9</ele>
        <time>2019-11-13T15:29:56Z</time>
      </trkpt>
      <trkpt lat="43.48557" lon="6.4003">
        <ele>121.3</ele>
        <time>2019-11-13T15:30:05Z</time>
      </trkpt>
      <trkpt lat="43.48554" lon="6.40018">
        <ele>121.7</ele>
        <time>2019-11-13T15:30:14Z</time>
      </trkpt>
      <trkpt lat="43.48552" lon="6.40005">
        <ele>122</ele>
        <time>2019-11-13T15:30:23Z</time>
      </trkpt>
      <trkpt lat="43.48551" lon="6.39992">
        <ele>122.4</ele>
        <time>2019-11-13T15:30:33Z</time>
      </trkpt>
      <trkpt lat="43.48551" lon="6.39979">
        <ele>123</ele>
        <time>2019-11-13T15:30:42Z</time>
      </trkpt>
      <trkpt lat="43.4855" lon="6.39965">
        <ele>123.7</ele>
        <time>2019-11-13T15:30:51Z</time>
      </trkpt>
      <trkpt lat="43.48549" lon="6.39952">
        <ele>124.3</ele>
        <time>2019-11-13T15:31:00Z</time>
      </trkpt>
      <trkpt lat="43.48548" lon="6.39938">
        <ele>124.7</ele>
        <time>2019-11-13T15:31:09Z</time>
      </trkpt>
      <trkpt lat="43.48547" lon="6.39925">
        <ele>125.2</ele>
        <time>2019-11-13T15:31:17Z</time>
      </trkpt>
      <trkpt lat="43.48546" lon="6.39913">
        <ele>125.6</ele>
        <time>2019-11-13T15:31:26Z</time>
      </trkpt>
      <trkpt lat="43.48545" lon="6.399">
        <ele>125.8</ele>
        <time>2019-11-13T15:31:35Z</time>
      </trkpt>
      <trkpt lat="43.48546" lon="6.39887">
        <ele>126.4</ele>
        <time>2019-11-13T15:31:47Z</time>
      </trkpt>
      <trkpt lat="43.48545" lon="6.39875">
        <ele>126.8</ele>
        <time>2019-11-13T15:31:58Z</time>
      </trkpt>
      <trkpt lat="43.48543" lon="6.39862">
        <ele>127.4</ele>
        <time>2019-11-13T15:32:11Z</time>
      </trkpt>
      <trkpt lat="43.48542" lon="6.39848">
        <ele>127.7</ele>
        <time>2019-11-13T15:32:19Z</time>
      </trkpt>
      <trkpt lat="43.48541" lon="6.39835">
        <ele>128.3</ele>
        <time>2019-11-13T15:32:26Z</time>
      </trkpt>
      <trkpt lat="43.48541" lon="6.39823">
        <ele>129.2</ele>
        <time>2019-11-13T15:32:36Z</time>
      </trkpt>
      <trkpt lat="43.48541" lon="6.3981">
        <ele>130</ele>
        <time>2019-11-13T15:33:07Z</time>
      </trkpt>
      <trkpt lat="43.48537" lon="6.39798">
        <ele>130.7</ele>
        <time>2019-11-13T15:33:35Z</time>
      </trkpt>
      <trkpt lat="43.48528" lon="6.39794">
        <ele>131.1</ele>
        <time>2019-11-13T15:33:46Z</time>
      </trkpt>
      <trkpt lat="43.48519" lon="6.3979">
        <ele>131.3</ele>
        <time>2019-11-13T15:33:57Z</time>
      </trkpt>
      <trkpt lat="43.48509" lon="6.39789">
        <ele>131.8</ele>
        <time>2019-11-13T15:34:05Z</time>
      </trkpt>
      <trkpt lat="43.485" lon="6.39787">
        <ele>132.2</ele>
        <time>2019-11-13T15:34:13Z</time>
      </trkpt>
      <trkpt lat="43.48491" lon="6.39785">
        <ele>132.5</ele>
        <time>2019-11-13T15:34:25Z</time>
      </trkpt>
      <trkpt lat="43.48481" lon="6.39783">
        <ele>132.6</ele>
        <time>2019-11-13T15:34:35Z</time>
      </trkpt>
      <trkpt lat="43.48472" lon="6.3978">
        <ele>132.9</ele>
        <time>2019-11-13T15:34:44Z</time>
      </trkpt>
      <trkpt lat="43.48462" lon="6.39777">
        <ele>133</ele>
        <time>2019-11-13T15:34:53Z</time>
      </trkpt>
      <trkpt lat="43.48453" lon="6.39776">
        <ele>133.7</ele>
        <time>2019-11-13T15:35:00Z</time>
      </trkpt>
      <trkpt lat="43.48443" lon="6.39772">
        <ele>133.4</ele>
        <time>2019-11-13T15:35:10Z</time>
      </trkpt>
      <trkpt lat="43.48434" lon="6.39771">
        <ele>132.7</ele>
        <time>2019-11-13T15:35:16Z</time>
      </trkpt>
      <trkpt lat="43.48424" lon="6.39768">
        <ele>131.8</ele>
        <time>2019-11-13T15:35:24Z</time>
      </trkpt>
      <trkpt lat="43.48415" lon="6.39765">
        <ele>130.9</ele>
        <time>2019-11-13T15:35:33Z</time>
      </trkpt>
      <trkpt lat="43.48406" lon="6.39762">
        <ele>130.1</ele>
        <time>2019-11-13T15:35:41Z</time>
      </trkpt>
      <trkpt lat="43.48396" lon="6.39759">
        <ele>129.5</ele>
        <time>2019-11-13T15:35:49Z</time>
      </trkpt>
      <trkpt lat="43.48387" lon="6.39757">
        <ele>128.9</ele>
        <time>2019-11-13T15:35:57Z</time>
      </trkpt>
      <trkpt lat="43.48378" lon="6.39756">
        <ele>128.2</ele>
        <time>2019-11-13T15:36:06Z</time>
      </trkpt>
      <trkpt lat="43.48368" lon="6.39758">
        <ele>127.3</ele>
        <time>2019-11-13T15:36:15Z</time>
      </trkpt>
      <trkpt lat="43.48359" lon="6.3976">
        <ele>126.4</ele>
        <time>2019-11-13T15:36:23Z</time>
      </trkpt>
      <trkpt lat="43.48349" lon="6.39764">
        <ele>125.7</ele>
        <time>2019-11-13T15:36:31Z</time>
      </trkpt>
      <trkpt lat="43.4834" lon="6.39769">
        <ele>125.2</ele>
        <time>2019-11-13T15:36:39Z</time>
      </trkpt>
      <trkpt lat="43.48331" lon="6.39774">
        <ele>124.9</ele>
        <time>2019-11-13T15:36:47Z</time>
      </trkpt>
      <trkpt lat="43.48322" lon="6.39775">
        <ele>124.2</ele>
        <time>2019-11-13T15:37:10Z</time>
      </trkpt>
      <trkpt lat="43.48318" lon="6.39776">
        <ele>124.1</ele>
        <time>2019-11-13T15:37:20Z</time>
      </trkpt>
    </trkseg>
  </trk>
</gpx>